Wetterdaten: Montag, 30.05.2022
Datum Zeit Temp. Aussen Temp. o. S. Temp +5cm Feuchte Auss Luftdruck Regen Sonnenschein Regendauer Solar Windben Empfang
30.05.2022 00:00 10,8 C 10,0 C 6,7 C 82 % 1013,7 hPa 0,0 l/m 0 min 0 min 0 W/m 6,4 km/h (2 Bft) 100,00 %
30.05.2022 00:02 10,8 C 10,0 C 6,7 C 82 % 1013,7 hPa 0,0 l/m 0 min 0 min 0 W/m 9,7 km/h (2 Bft) 100,00 %
30.05.2022 00:04 10,8 C 10,0 C 6,7 C 83 % 1013,7 hPa 0,0 l/m 0 min 0 min 0 W/m 3,2 km/h (1 Bft) 100,00 %
30.05.2022 00:07 10,7 C 10,0 C 6,7 C 83 % 1013,7 hPa 0,0 l/m 0 min 0 min 0 W/m 9,7 km/h (2 Bft) 100,00 %
30.05.2022 00:10 10,7 C 10,0 C 6,7 C 82 % 1013,7 hPa 0,0 l/m 0 min 0 min 0 W/m 12,9 km/h (3 Bft) 99,30 %
30.05.2022 00:12 10,7 C 10,0 C 6,7 C 82 % 1013,7 hPa 0,0 l/m 0 min 0 min 0 W/m 9,7 km/h (2 Bft) 97,83 %
30.05.2022 00:14 10,7 C 10,0 C 6,7 C 82 % 1013,7 hPa 0,0 l/m 0 min 0 min 0 W/m 6,4 km/h (2 Bft) 100,00 %
30.05.2022 00:16 10,7 C 10,0 C 6,7 C 82 % 1013,7 hPa 0,0 l/m 0 min 0 min 0 W/m 6,4 km/h (2 Bft) 100,00 %
30.05.2022 00:18 10,7 C 10,0 C 6,7 C 82 % 1013,7 hPa 0,0 l/m 0 min 0 min 0 W/m 9,7 km/h (2 Bft) 100,00 %
30.05.2022 00:20 10,7 C 10,0 C 6,7 C 82 % 1013,7 hPa 0,0 l/m 0 min 0 min 0 W/m 6,4 km/h (2 Bft) 100,00 %
30.05.2022 00:22 10,7 C 10,0 C 6,7 C 81 % 1013,7 hPa 0,0 l/m 0 min 0 min 0 W/m 6,4 km/h (2 Bft) 100,00 %
30.05.2022 00:24 10,6 C 10,0 C 6,7 C 81 % 1013,7 hPa 0,0 l/m 0 min 0 min 0 W/m 9,7 km/h (2 Bft) 100,00 %
30.05.2022 00:26 10,6 C 10,0 C 6,7 C 81 % 1013,6 hPa 0,0 l/m 0 min 0 min 0 W/m 3,2 km/h (1 Bft) 100,00 %
30.05.2022 00:28 10,6 C 10,0 C 6,7 C 81 % 1013,6 hPa 0,0 l/m 0 min 0 min 0 W/m 3,2 km/h (1 Bft) 100,00 %
30.05.2022 00:30 10,6 C 10,0 C 6,7 C 81 % 1013,6 hPa 0,0 l/m 0 min 0 min 0 W/m 12,9 km/h (3 Bft) 97,87 %
30.05.2022 00:32 10,6 C 10,0 C 6,7 C 80 % 1013,6 hPa 0,0 l/m 0 min 0 min 0 W/m 3,2 km/h (1 Bft) 97,87 %
30.05.2022 00:34 10,6 C 10,0 C 6,7 C 80 % 1013,6 hPa 0,0 l/m 0 min 0 min 0 W/m 6,4 km/h (2 Bft) 97,87 %
30.05.2022 00:36 10,6 C 10,0 C 6,7 C 80 % 1013,7 hPa 0,0 l/m 0 min 0 min 0 W/m 12,9 km/h (3 Bft) 100,00 %
30.05.2022 00:38 10,6 C 10,0 C 6,7 C 80 % 1013,7 hPa 0,0 l/m 0 min 0 min 0 W/m 12,9 km/h (3 Bft) 100,00 %
30.05.2022 00:40 10,6 C 10,0 C 6,7 C 80 % 1013,7 hPa 0,0 l/m 0 min 0 min 0 W/m 16,1 km/h (3 Bft) 97,87 %
30.05.2022 00:42 10,6 C 10,0 C 6,7 C 80 % 1013,7 hPa 0,0 l/m 0 min 0 min 0 W/m 9,7 km/h (2 Bft) 95,74 %
30.05.2022 00:44 10,6 C 10,0 C 6,7 C 80 % 1013,7 hPa 0,0 l/m 0 min 0 min 0 W/m 12,9 km/h (3 Bft) 95,74 %
30.05.2022 00:46 10,6 C 10,0 C 6,7 C 80 % 1013,7 hPa 0,0 l/m 0 min 0 min 0 W/m 6,4 km/h (2 Bft) 97,87 %
30.05.2022 00:48 10,6 C 10,0 C 6,7 C 79 % 1013,7 hPa 0,0 l/m 0 min 0 min 0 W/m 9,7 km/h (2 Bft) 95,65 %
30.05.2022 00:50 10,6 C 10,0 C 6,7 C 79 % 1013,7 hPa 0,0 l/m 0 min 0 min 0 W/m 12,9 km/h (3 Bft) 93,62 %
30.05.2022 00:52 10,6 C 10,0 C 6,7 C 79 % 1013,7 hPa 0,0 l/m 0 min 0 min 0 W/m 6,4 km/h (2 Bft) 93,62 %
30.05.2022 00:54 10,6 C 10,0 C 6,7 C 79 % 1013,7 hPa 0,0 l/m 0 min 0 min 0 W/m 6,4 km/h (2 Bft) 91,49 %
30.05.2022 00:56 10,6 C 10,0 C 6,7 C 79 % 1013,7 hPa 0,0 l/m 0 min 0 min 0 W/m 9,7 km/h (2 Bft) 93,62 %
30.05.2022 00:58 10,6 C 10,0 C 6,7 C 79 % 1013,8 hPa 0,0 l/m 0 min 0 min 0 W/m 6,4 km/h (2 Bft) 93,48 %
30.05.2022 01:00 10,6 C 10,0 C 6,7 C 79 % 1013,8 hPa 0,0 l/m 0 min 0 min 0 W/m 3,2 km/h (1 Bft) 93,62 %
30.05.2022 01:02 10,6 C 10,0 C 6,7 C 79 % 1013,7 hPa 0,0 l/m 0 min 0 min 0 W/m 3,2 km/h (1 Bft) 93,62 %
30.05.2022 01:04 10,6 C 10,0 C 6,7 C 79 % 1013,7 hPa 0,0 l/m 0 min 0 min 0 W/m 6,4 km/h (2 Bft) 93,62 %
30.05.2022 01:06 10,6 C 10,0 C 6,7 C 79 % 1013,7 hPa 0,0 l/m 0 min 0 min 0 W/m 3,2 km/h (1 Bft) 91,49 %
30.05.2022 01:08 10,6 C 10,0 C 6,7 C 79 % 1013,7 hPa 0,0 l/m 0 min 0 min 0 W/m 9,7 km/h (2 Bft) 93,62 %
30.05.2022 01:10 10,6 C 10,0 C 6,7 C 79 % 1013,7 hPa 0,0 l/m 0 min 0 min 0 W/m 3,2 km/h (1 Bft) 93,48 %
30.05.2022 01:12 10,6 C 10,0 C 6,7 C 80 % 1013,7 hPa 0,0 l/m 0 min 0 min 0 W/m 3,2 km/h (1 Bft) 95,74 %
30.05.2022 01:14 10,6 C 10,0 C 6,7 C 80 % 1013,7 hPa 0,0 l/m 0 min 0 min 0 W/m 9,7 km/h (2 Bft) 95,74 %
30.05.2022 01:16 10,6 C 10,0 C 6,7 C 80 % 1013,7 hPa 0,0 l/m 0 min 0 min 0 W/m 6,4 km/h (2 Bft) 95,74 %
30.05.2022 01:18 10,6 C 10,0 C 6,7 C 80 % 1013,6 hPa 0,0 l/m 0 min 0 min 0 W/m 6,4 km/h (2 Bft) 95,74 %
30.05.2022 01:20 10,6 C 10,0 C 6,7 C 80 % 1013,7 hPa 0,0 l/m 0 min 0 min 0 W/m 3,2 km/h (1 Bft) 95,74 %
30.05.2022 01:22 10,6 C 10,0 C 6,7 C 80 % 1013,6 hPa 0,0 l/m 0 min 0 min 0 W/m 3,2 km/h (1 Bft) 95,65 %
30.05.2022 01:24 10,6 C 10,0 C 6,7 C 80 % 1013,6 hPa 0,0 l/m 0 min 0 min 0 W/m 6,4 km/h (2 Bft) 95,74 %
30.05.2022 01:26 10,6 C 10,0 C 6,7 C 80 % 1013,6 hPa 0,0 l/m 0 min 0 min 0 W/m 3,2 km/h (1 Bft) 95,74 %
30.05.2022 01:28 10,5 C 10,0 C 6,7 C 80 % 1013,6 hPa 0,0 l/m 0 min 0 min 0 W/m 6,4 km/h (2 Bft) 93,62 %
30.05.2022 01:30 10,5 C 10,0 C 6,7 C 80 % 1013,6 hPa 0,0 l/m 0 min 0 min 0 W/m 3,2 km/h (1 Bft) 95,74 %
30.05.2022 01:32 10,5 C 10,0 C 6,7 C 80 % 1013,6 hPa 0,0 l/m 0 min 0 min 0 W/m 3,2 km/h (1 Bft) 95,74 %
30.05.2022 01:34 10,5 C 10,0 C 6,7 C 80 % 1013,6 hPa 0,0 l/m 0 min 0 min 0 W/m 6,4 km/h (2 Bft) 95,65 %
30.05.2022 01:36 10,5 C 10,0 C 6,7 C 80 % 1013,6 hPa 0,0 l/m 0 min 0 min 0 W/m 3,2 km/h (1 Bft) 97,87 %
30.05.2022 01:38 10,5 C 10,0 C 6,7 C 80 % 1013,5 hPa 0,0 l/m 0 min 0 min 0 W/m 3,2 km/h (1 Bft) 97,87 %
30.05.2022 01:40 10,5 C 10,0 C 6,7 C 80 % 1013,5 hPa 0,0 l/m 0 min 0 min 0 W/m 6,4 km/h (2 Bft) 97,87 %
30.05.2022 01:42 10,5 C 10,0 C 6,7 C 80 % 1013,6 hPa 0,0 l/m 0 min 0 min 0 W/m 3,2 km/h (1 Bft) 97,87 %
30.05.2022 01:44 10,5 C 10,0 C 6,7 C 80 % 1013,5 hPa 0,0 l/m 0 min 0 min 0 W/m 3,2 km/h (1 Bft) 97,87 %
30.05.2022 01:46 10,5 C 10,0 C 6,7 C 80 % 1013,5 hPa 0,0 l/m 0 min 0 min 0 W/m 3,2 km/h (1 Bft) 100,00 %
30.05.2022 01:48 10,5 C 10,0 C 6,7 C 80 % 1013,5 hPa 0,0 l/m 0 min 0 min 0 W/m 0,0 km/h (0 Bft) 100,00 %
30.05.2022 01:50 10,5 C 10,0 C 6,7 C 80 % 1013,5 hPa 0,0 l/m 0 min 0 min 0 W/m 0,0 km/h (0 Bft) 100,00 %
30.05.2022 01:52 10,5 C 10,0 C 6,7 C 80 % 1013,5 hPa 0,0 l/m 0 min 0 min 0 W/m 0,0 km/h (0 Bft) 100,00 %
30.05.2022 01:54 10,5 C 10,0 C 6,7 C 80 % 1013,5 hPa 0,0 l/m 0 min 0 min 0 W/m 0,0 km/h (0 Bft) 100,00 %
30.05.2022 01:56 10,5 C 10,0 C 6,7 C 80 % 1013,4 hPa 0,0 l/m 0 min 0 min 0 W/m 0,0 km/h (0 Bft) 100,00 %
30.05.2022 01:58 10,5 C 10,0 C 6,7 C 80 % 1013,4 hPa 0,0 l/m 0 min 0 min 0 W/m 0,0 km/h (0 Bft) 100,00 %
30.05.2022 02:00 10,5 C 10,0 C 6,7 C 81 % 1013,4 hPa 0,0 l/m 0 min 0 min 0 W/m 0,0 km/h (0 Bft) 100,00 %
30.05.2022 02:02 10,4 C 10,0 C 6,7 C 80 % 1013,4 hPa 0,0 l/m 0 min 0 min 0 W/m 0,0 km/h (0 Bft) 97,87 %
30.05.2022 02:04 10,4 C 10,0 C 6,7 C 81 % 1013,4 hPa 0,0 l/m 0 min 0 min 0 W/m 0,0 km/h (0 Bft) 100,00 %
30.05.2022 02:06 10,4 C 9,4 C 6,7 C 81 % 1013,4 hPa 0,0 l/m 0 min 0 min 0 W/m 0,0 km/h (0 Bft) 100,00 %
30.05.2022 02:08 10,4 C 9,4 C 6,1 C 81 % 1013,4 hPa 0,0 l/m 0 min 0 min 0 W/m 0,0 km/h (0 Bft) 100,00 %
30.05.2022 02:10 10,4 C 9,4 C 6,1 C 81 % 1013,4 hPa 0,0 l/m 0 min 0 min 0 W/m 0,0 km/h (0 Bft) 100,00 %
30.05.2022 02:12 10,4 C 9,4 C 6,7 C 81 % 1013,4 hPa 0,0 l/m 0 min 0 min 0 W/m 0,0 km/h (0 Bft) 100,00 %
30.05.2022 02:14 10,4 C 9,4 C 6,7 C 81 % 1013,4 hPa 0,0 l/m 0 min 0 min 0 W/m 0,0 km/h (0 Bft) 95,74 %
30.05.2022 02:16 10,4 C 9,4 C 6,1 C 82 % 1013,3 hPa 0,0 l/m 0 min 0 min 0 W/m 0,0 km/h (0 Bft) 100,00 %
30.05.2022 02:18 10,4 C 9,4 C 6,1 C 82 % 1013,4 hPa 0,0 l/m 0 min 0 min 0 W/m 0,0 km/h (0 Bft) 100,00 %
30.05.2022 02:20 10,4 C 9,4 C 6,1 C 82 % 1013,4 hPa 0,0 l/m 0 min 0 min 0 W/m 0,0 km/h (0 Bft) 100,00 %
30.05.2022 02:22 10,3 C 9,4 C 6,1 C 82 % 1013,4 hPa 0,0 l/m 0 min 0 min 0 W/m 0,0 km/h (0 Bft) 100,00 %
30.05.2022 02:24 10,3 C 9,4 C 6,1 C 82 % 1013,4 hPa 0,0 l/m 0 min 0 min 0 W/m 0,0 km/h (0 Bft) 95,74 %
30.05.2022 02:26 10,3 C 9,4 C 6,1 C 82 % 1013,4 hPa 0,0 l/m 0 min 0 min 0 W/m 0,0 km/h (0 Bft) 95,74 %
30.05.2022 02:28 10,3 C 9,4 C 6,1 C 82 % 1013,4 hPa 0,0 l/m 0 min 0 min 0 W/m 0,0 km/h (0 Bft) 97,87 %
30.05.2022 02:30 10,2 C 9,4 C 6,1 C 82 % 1013,4 hPa 0,0 l/m 0 min 0 min 0 W/m 0,0 km/h (0 Bft) 97,87 %
30.05.2022 02:32 10,2 C 9,4 C 6,1 C 82 % 1013,4 hPa 0,0 l/m 0 min 0 min 0 W/m 0,0 km/h (0 Bft) 95,74 %
30.05.2022 02:34 10,2 C 9,4 C 6,1 C 82 % 1013,4 hPa 0,0 l/m 0 min 0 min 0 W/m 12,9 km/h (3 Bft) 97,83 %
30.05.2022 02:36 10,2 C 9,4 C 6,1 C 82 % 1013,4 hPa 0,0 l/m 0 min 0 min 0 W/m 9,7 km/h (2 Bft) 97,87 %
30.05.2022 02:38 10,1 C 9,4 C 6,1 C 82 % 1013,3 hPa 0,0 l/m 0 min 0 min 0 W/m 9,7 km/h (2 Bft) 97,87 %
30.05.2022 02:40 10,1 C 9,4 C 6,1 C 82 % 1013,3 hPa 0,0 l/m 0 min 0 min 0 W/m 3,2 km/h (1 Bft) 97,87 %
30.05.2022 02:42 10,1 C 9,4 C 6,1 C 82 % 1013,3 hPa 0,0 l/m 0 min 0 min 0 W/m 3,2 km/h (1 Bft) 95,74 %
30.05.2022 02:44 10,1 C 9,4 C 6,1 C 83 % 1013,3 hPa 0,0 l/m 0 min 0 min 0 W/m 3,2 km/h (1 Bft) 97,87 %
30.05.2022 02:46 10,1 C 9,4 C 6,1 C 83 % 1013,3 hPa 0,0 l/m 0 min 0 min 0 W/m 3,2 km/h (1 Bft) 97,83 %
30.05.2022 02:48 10,1 C 9,4 C 6,1 C 83 % 1013,3 hPa 0,0 l/m 0 min 0 min 0 W/m 6,4 km/h (2 Bft) 97,87 %
30.05.2022 02:50 10,1 C 9,4 C 6,1 C 83 % 1013,2 hPa 0,0 l/m 0 min 0 min 0 W/m 6,4 km/h (2 Bft) 97,87 %
30.05.2022 02:52 10,1 C 9,4 C 6,1 C 83 % 1013,2 hPa 0,0 l/m 0 min 0 min 0 W/m 3,2 km/h (1 Bft) 97,87 %
30.05.2022 02:54 10,1 C 9,4 C 6,1 C 83 % 1013,3 hPa 0,0 l/m 0 min 0 min 0 W/m 3,2 km/h (1 Bft) 97,87 %
30.05.2022 02:56 10,1 C 9,4 C 6,1 C 84 % 1013,2 hPa 0,0 l/m 0 min 0 min 0 W/m 3,2 km/h (1 Bft) 97,87 %
30.05.2022 02:58 10,1 C 9,4 C 6,1 C 84 % 1013,2 hPa 0,0 l/m 0 min 0 min 0 W/m 3,2 km/h (1 Bft) 100,00 %
30.05.2022 03:00 10,1 C 9,4 C 6,1 C 84 % 1013,2 hPa 0,0 l/m 0 min 0 min 0 W/m 6,4 km/h (2 Bft) 100,00 %
30.05.2022 03:02 10,1 C 9,4 C 6,1 C 84 % 1013,2 hPa 0,0 l/m 0 min 0 min 0 W/m 3,2 km/h (1 Bft) 100,00 %
30.05.2022 03:04 10,0 C 9,4 C 6,1 C 84 % 1013,3 hPa 0,0 l/m 0 min 0 min 0 W/m 3,2 km/h (1 Bft) 100,00 %
30.05.2022 03:06 10,0 C 9,4 C 6,1 C 84 % 1013,2 hPa 0,0 l/m 0 min 0 min 0 W/m 6,4 km/h (2 Bft) 100,00 %
30.05.2022 03:08 10,0 C 9,4 C 6,1 C 84 % 1013,2 hPa 0,0 l/m 0 min 0 min 0 W/m 3,2 km/h (1 Bft) 100,00 %
30.05.2022 03:10 10,0 C 9,4 C 6,1 C 84 % 1013,3 hPa 0,0 l/m 0 min 0 min 0 W/m 3,2 km/h (1 Bft) 97,83 %
30.05.2022 03:12 10,0 C 9,4 C 6,1 C 84 % 1013,2 hPa 0,0 l/m 0 min 0 min 0 W/m 3,2 km/h (1 Bft) 93,62 %
30.05.2022 03:14 9,9 C 9,4 C 6,1 C 84 % 1013,2 hPa 0,0 l/m 0 min 0 min 0 W/m 3,2 km/h (1 Bft) 100,00 %
30.05.2022 03:16 9,9 C 9,4 C 6,1 C 84 % 1013,2 hPa 0,0 l/m 0 min 0 min 0 W/m 3,2 km/h (1 Bft) 100,00 %
30.05.2022 03:18 9,9 C 9,4 C 6,1 C 84 % 1013,1 hPa 0,0 l/m 0 min 0 min 0 W/m 3,2 km/h (1 Bft) 100,00 %
30.05.2022 03:20 9,9 C 9,4 C 6,1 C 84 % 1013,1 hPa 0,0 l/m 0 min 0 min 0 W/m 0,0 km/h (0 Bft) 97,87 %
30.05.2022 03:22 9,9 C 9,4 C 6,1 C 84 % 1013,1 hPa 0,0 l/m 0 min 0 min 0 W/m 3,2 km/h (1 Bft) 100,00 %
30.05.2022 03:24 9,9 C 9,4 C 6,1 C 84 % 1013,1 hPa 0,0 l/m 0 min 0 min 0 W/m 3,2 km/h (1 Bft) 97,87 %
30.05.2022 03:26 9,9 C 9,4 C 6,1 C 84 % 1013,1 hPa 0,0 l/m 0 min 0 min 0 W/m 3,2 km/h (1 Bft) 97,87 %
30.05.2022 03:28 10,0 C 9,4 C 6,1 C 85 % 1013,1 hPa 0,0 l/m 0 min 0 min 0 W/m 0,0 km/h (0 Bft) 97,87 %
30.05.2022 03:30 10,0 C 9,4 C 6,1 C 85 % 1013,1 hPa 0,0 l/m 0 min 0 min 0 W/m 3,2 km/h (1 Bft) 97,87 %
30.05.2022 03:32 10,0 C 9,4 C 6,1 C 85 % 1013,1 hPa 0,0 l/m 0 min 0 min 0 W/m 3,2 km/h (1 Bft) 95,74 %
30.05.2022 03:34 10,0 C 9,4 C 6,1 C 85 % 1013,1 hPa 0,0 l/m 0 min 0 min 0 W/m 3,2 km/h (1 Bft) 97,83 %
30.05.2022 03:36 10,0 C 9,4 C 6,1 C 85 % 1013,0 hPa 0,0 l/m 0 min 0 min 0 W/m 3,2 km/h (1 Bft) 97,87 %
30.05.2022 03:38 9,9 C 9,4 C 6,1 C 85 % 1013,0 hPa 0,0 l/m 0 min 0 min 0 W/m 3,2 km/h (1 Bft) 97,87 %
30.05.2022 03:40 9,9 C 8,9 C 6,1 C 85 % 1013,0 hPa 0,0 l/m 0 min 0 min 0 W/m 3,2 km/h (1 Bft) 97,87 %
30.05.2022 03:42 9,9 C 9,4 C 6,1 C 85 % 1013,0 hPa 0,0 l/m 0 min 0 min 0 W/m 3,2 km/h (1 Bft) 97,87 %
30.05.2022 03:44 9,9 C 9,4 C 6,1 C 85 % 1013,0 hPa 0,0 l/m 0 min 0 min 0 W/m 3,2 km/h (1 Bft) 97,87 %
30.05.2022 03:46 9,9 C 9,4 C 6,1 C 85 % 1013,0 hPa 0,0 l/m 0 min 0 min 0 W/m 3,2 km/h (1 Bft) 97,83 %
30.05.2022 03:48 9,9 C 8,9 C 6,1 C 86 % 1012,9 hPa 0,0 l/m 0 min 0 min 0 W/m 3,2 km/h (1 Bft) 97,87 %
30.05.2022 03:50 10,0 C 9,4 C 6,1 C 86 % 1013,0 hPa 0,0 l/m 0 min 0 min 0 W/m 0,0 km/h (0 Bft) 97,87 %
30.05.2022 03:52 10,0 C 8,9 C 6,1 C 86 % 1012,9 hPa 0,0 l/m 0 min 0 min 0 W/m 0,0 km/h (0 Bft) 95,74 %
30.05.2022 03:54 10,0 C 8,9 C 6,1 C 86 % 1012,9 hPa 0,0 l/m 0 min 0 min 0 W/m 0,0 km/h (0 Bft) 97,87 %
30.05.2022 03:56 9,9 C 8,9 C 6,1 C 86 % 1012,9 hPa 0,0 l/m 0 min 0 min 0 W/m 0,0 km/h (0 Bft) 97,87 %
30.05.2022 03:58 9,9 C 8,9 C 6,1 C 86 % 1012,9 hPa 0,0 l/m 0 min 0 min 0 W/m 0,0 km/h (0 Bft) 97,83 %
30.05.2022 04:00 10,0 C 8,9 C 6,1 C 86 % 1012,9 hPa 0,0 l/m 0 min 0 min 0 W/m 0,0 km/h (0 Bft) 97,87 %
30.05.2022 04:02 10,0 C 8,9 C 6,1 C 86 % 1012,9 hPa 0,0 l/m 0 min 0 min 0 W/m 0,0 km/h (0 Bft) 96,55 %
30.05.2022 04:04 10,0 C 8,9 C 6,1 C 86 % 1012,9 hPa 0,0 l/m 0 min 0 min 0 W/m 0,0 km/h (0 Bft) 95,74 %
30.05.2022 04:06 10,0 C 8,9 C 6,1 C 86 % 1012,9 hPa 0,0 l/m 0 min 0 min 0 W/m 3,2 km/h (1 Bft) 95,74 %
30.05.2022 04:08 9,9 C 8,9 C 6,1 C 86 % 1012,9 hPa 0,0 l/m 0 min 0 min 0 W/m 3,2 km/h (1 Bft) 91,30 %
30.05.2022 04:10 9,9 C 8,9 C 6,1 C 86 % 1012,9 hPa 0,0 l/m 0 min 0 min 0 W/m 3,2 km/h (1 Bft) 95,74 %
30.05.2022 04:12 9,9 C 8,9 C 6,1 C 86 % 1012,8 hPa 0,0 l/m 0 min 0 min 0 W/m 0,0 km/h (0 Bft) 97,87 %
30.05.2022 04:14 9,9 C 8,9 C 5,6 C 86 % 1012,8 hPa 0,0 l/m 0 min 0 min 0 W/m 3,2 km/h (1 Bft) 91,49 %
30.05.2022 04:16 9,9 C 8,9 C 5,6 C 86 % 1012,9 hPa 0,0 l/m 0 min 0 min 0 W/m 3,2 km/h (1 Bft) 93,62 %
30.05.2022 04:18 9,9 C 8,9 C 5,6 C 87 % 1012,9 hPa 0,0 l/m 0 min 0 min 0 W/m 6,4 km/h (2 Bft) 95,74 %
30.05.2022 04:20 9,8 C 8,9 C 5,6 C 87 % 1012,9 hPa 0,0 l/m 0 min 0 min 0 W/m 9,7 km/h (2 Bft) 95,65 %
30.05.2022 04:22 9,8 C 8,9 C 5,6 C 87 % 1012,9 hPa 0,0 l/m 0 min 0 min 0 W/m 6,4 km/h (2 Bft) 93,62 %
30.05.2022 04:24 9,8 C 8,9 C 5,6 C 87 % 1012,9 hPa 0,0 l/m 0 min 0 min 0 W/m 3,2 km/h (1 Bft) 95,74 %
30.05.2022 04:26 9,8 C 8,9 C 5,6 C 87 % 1012,9 hPa 0,0 l/m 0 min 0 min 0 W/m 6,4 km/h (2 Bft) 91,49 %
30.05.2022 04:28 9,8 C 8,9 C 5,6 C 87 % 1012,8 hPa 0,0 l/m 0 min 0 min 0 W/m 6,4 km/h (2 Bft) 95,74 %
30.05.2022 04:30 9,8 C 8,9 C 5,6 C 87 % 1012,8 hPa 0,0 l/m 0 min 0 min 0 W/m 3,2 km/h (1 Bft) 95,74 %
30.05.2022 04:32 9,7 C 8,9 C 5,6 C 87 % 1012,8 hPa 0,0 l/m 0 min 0 min 0 W/m 6,4 km/h (2 Bft) 95,65 %
30.05.2022 04:34 9,7 C 8,9 C 5,6 C 87 % 1012,8 hPa 0,0 l/m 0 min 0 min 0 W/m 3,2 km/h (1 Bft) 95,74 %
30.05.2022 04:36 9,7 C 8,9 C 5,6 C 87 % 1012,8 hPa 0,0 l/m 0 min 0 min 0 W/m 3,2 km/h (1 Bft) 95,74 %
30.05.2022 04:38 9,7 C 8,9 C 5,6 C 87 % 1012,7 hPa 0,0 l/m 0 min 0 min 0 W/m 3,2 km/h (1 Bft) 93,62 %
30.05.2022 04:40 9,7 C 8,9 C 5,6 C 87 % 1012,8 hPa 0,0 l/m 0 min 0 min 0 W/m 3,2 km/h (1 Bft) 95,74 %
30.05.2022 04:42 9,7 C 8,9 C 5,6 C 87 % 1012,7 hPa 0,0 l/m 0 min 0 min 0 W/m 6,4 km/h (2 Bft) 97,87 %
30.05.2022 04:44 9,7 C 8,9 C 5,6 C 87 % 1012,8 hPa 0,0 l/m 0 min 0 min 0 W/m 12,9 km/h (3 Bft) 97,83 %
30.05.2022 04:46 9,6 C 8,9 C 5,6 C 87 % 1012,8 hPa 0,0 l/m 0 min 0 min 0 W/m 9,7 km/h (2 Bft) 93,62 %
30.05.2022 04:48 9,6 C 8,9 C 5,6 C 87 % 1012,8 hPa 0,0 l/m 0 min 0 min 0 W/m 3,2 km/h (1 Bft) 95,74 %
30.05.2022 04:50 9,6 C 8,9 C 5,6 C 87 % 1012,8 hPa 0,0 l/m 0 min 0 min 0 W/m 3,2 km/h (1 Bft) 97,87 %
30.05.2022 04:52 9,6 C 8,9 C 5,6 C 87 % 1012,8 hPa 0,0 l/m 0 min 0 min 0 W/m 3,2 km/h (1 Bft) 95,74 %
30.05.2022 04:54 9,6 C 8,9 C 5,6 C 87 % 1012,8 hPa 0,0 l/m 0 min 0 min 0 W/m 0,0 km/h (0 Bft) 97,87 %
30.05.2022 04:56 9,6 C 8,9 C 5,6 C 87 % 1012,8 hPa 0,0 l/m 0 min 0 min 0 W/m 6,4 km/h (2 Bft) 95,65 %
30.05.2022 04:58 9,6 C 8,9 C 5,6 C 87 % 1012,8 hPa 0,0 l/m 0 min 0 min 0 W/m 3,2 km/h (1 Bft) 95,74 %
30.05.2022 05:00 9,5 C 8,9 C 5,6 C 87 % 1012,8 hPa 0,0 l/m 0 min 0 min 0 W/m 9,7 km/h (2 Bft) 78,72 %
30.05.2022 05:02 9,5 C 8,3 C 5,6 C 87 % 1012,8 hPa 0,0 l/m 0 min 0 min 0 W/m 6,4 km/h (2 Bft) 77,27 %
30.05.2022 05:04 9,4 C 8,3 C 5,6 C 88 % 1012,8 hPa 0,0 l/m 0 min 0 min 0 W/m 3,2 km/h (1 Bft) 100,00 %
30.05.2022 05:06 9,4 C 8,3 C 5,6 C 87 % 1012,8 hPa 0,0 l/m 0 min 0 min 0 W/m 12,9 km/h (3 Bft) 100,00 %
30.05.2022 05:08 9,4 C 8,3 C 5,6 C 88 % 1012,8 hPa 0,0 l/m 0 min 0 min 0 W/m 3,2 km/h (1 Bft) 100,00 %
30.05.2022 05:10 9,4 C 8,3 C 5,6 C 88 % 1012,8 hPa 0,0 l/m 0 min 0 min 0 W/m 0,0 km/h (0 Bft) 100,00 %
30.05.2022 05:12 9,3 C 8,3 C 5,6 C 88 % 1012,8 hPa 0,0 l/m 0 min 0 min 0 W/m 0,0 km/h (0 Bft) 100,00 %
30.05.2022 05:14 9,3 C 8,3 C 5,6 C 88 % 1012,8 hPa 0,0 l/m 0 min 0 min 0 W/m 0,0 km/h (0 Bft) 100,00 %
30.05.2022 05:16 9,3 C 8,3 C 5,6 C 88 % 1012,9 hPa 0,0 l/m 0 min 0 min 0 W/m 3,2 km/h (1 Bft) 100,00 %
30.05.2022 05:18 9,3 C 8,3 C 5,6 C 88 % 1012,9 hPa 0,0 l/m 0 min 0 min 0 W/m 3,2 km/h (1 Bft) 100,00 %
30.05.2022 05:20 9,3 C 8,3 C 5,6 C 88 % 1012,9 hPa 0,0 l/m 0 min 0 min 0 W/m 3,2 km/h (1 Bft) 100,00 %
30.05.2022 05:22 9,3 C 8,3 C 5,6 C 88 % 1012,9 hPa 0,0 l/m 0 min 0 min 0 W/m 6,4 km/h (2 Bft) 100,00 %
30.05.2022 05:24 9,2 C 8,3 C 5,6 C 88 % 1012,9 hPa 0,0 l/m 0 min 0 min 0 W/m 9,7 km/h (2 Bft) 100,00 %
30.05.2022 05:26 9,2 C 8,3 C 5,6 C 88 % 1012,9 hPa 0,0 l/m 0 min 0 min 0 W/m 6,4 km/h (2 Bft) 100,00 %
30.05.2022 05:28 9,2 C 8,3 C 5,6 C 88 % 1013,0 hPa 0,0 l/m 0 min 0 min 0 W/m 0,0 km/h (0 Bft) 100,00 %
30.05.2022 05:30 9,2 C 8,3 C 5,0 C 87 % 1012,9 hPa 0,0 l/m 0 min 0 min 0 W/m 3,2 km/h (1 Bft) 97,87 %
30.05.2022 05:32 9,2 C 8,3 C 5,6 C 87 % 1012,9 hPa 0,0 l/m 0 min 0 min 1 W/m 3,2 km/h (1 Bft) 100,00 %
30.05.2022 05:34 9,1 C 8,3 C 5,6 C 87 % 1012,9 hPa 0,0 l/m 0 min 0 min 5 W/m 6,4 km/h (2 Bft) 100,00 %
30.05.2022 05:36 9,1 C 8,3 C 5,6 C 87 % 1013,0 hPa 0,0 l/m 0 min 0 min 5 W/m 3,2 km/h (1 Bft) 97,87 %
30.05.2022 05:38 9,1 C 8,3 C 5,6 C 87 % 1013,0 hPa 0,0 l/m 0 min 0 min 6 W/m 6,4 km/h (2 Bft) 100,00 %
30.05.2022 05:40 9,1 C 8,3 C 5,6 C 87 % 1012,9 hPa 0,0 l/m 0 min 0 min 7 W/m 3,2 km/h (1 Bft) 100,00 %
30.05.2022 05:42 9,1 C 8,3 C 5,6 C 87 % 1012,9 hPa 0,0 l/m 0 min 0 min 8 W/m 9,7 km/h (2 Bft) 100,00 %
30.05.2022 05:44 9,1 C 8,3 C 5,0 C 87 % 1012,9 hPa 0,0 l/m 0 min 0 min 9 W/m 3,2 km/h (1 Bft) 95,65 %
30.05.2022 05:46 9,1 C 8,3 C 5,0 C 87 % 1013,0 hPa 0,0 l/m 0 min 0 min 9 W/m 3,2 km/h (1 Bft) 97,87 %
30.05.2022 05:48 9,1 C 8,3 C 5,6 C 87 % 1013,0 hPa 0,0 l/m 0 min 0 min 9 W/m 3,2 km/h (1 Bft) 97,87 %
30.05.2022 05:50 9,1 C 8,3 C 5,6 C 87 % 1013,0 hPa 0,0 l/m 0 min 0 min 9 W/m 3,2 km/h (1 Bft) 100,00 %
30.05.2022 05:52 9,1 C 8,3 C 5,6 C 87 % 1013,0 hPa 0,0 l/m 0 min 0 min 9 W/m 3,2 km/h (1 Bft) 95,74 %
30.05.2022 05:54 9,1 C 8,3 C 5,6 C 87 % 1013,0 hPa 0,0 l/m 0 min 0 min 11 W/m 3,2 km/h (1 Bft) 97,87 %
30.05.2022 05:57 9,1 C 8,3 C 5,6 C 86 % 1013,0 hPa 0,0 l/m 0 min 0 min 11 W/m 3,2 km/h (1 Bft) 95,71 %
30.05.2022 05:58 9,1 C 8,9 C 5,6 C 86 % 1013,0 hPa 0,0 l/m 0 min 0 min 12 W/m 3,2 km/h (1 Bft) 95,65 %
30.05.2022 06:00 9,1 C 8,9 C 5,6 C 86 % 1013,0 hPa 0,0 l/m 0 min 0 min 12 W/m 3,2 km/h (1 Bft) 95,74 %
30.05.2022 06:02 9,1 C 8,9 C 5,6 C 86 % 1013,0 hPa 0,0 l/m 0 min 0 min 14 W/m 0,0 km/h (0 Bft) 93,62 %
30.05.2022 06:04 9,1 C 8,9 C 5,6 C 86 % 1013,1 hPa 0,0 l/m 0 min 0 min 14 W/m 3,2 km/h (1 Bft) 95,74 %
30.05.2022 06:08 9,2 C 8,9 C 5,6 C 86 % 1013,1 hPa 0,0 l/m 0 min 0 min 17 W/m 6,4 km/h (2 Bft) 94,62 %
30.05.2022 06:10 9,2 C 8,9 C 5,6 C 86 % 1013,1 hPa 0,0 l/m 0 min 0 min 21 W/m 0,0 km/h (0 Bft) 95,74 %
30.05.2022 06:12 9,2 C 8,9 C 5,6 C 86 % 1013,1 hPa 0,0 l/m 0 min 0 min 24 W/m 6,4 km/h (2 Bft) 95,74 %
30.05.2022 06:14 9,2 C 8,9 C 5,6 C 86 % 1013,1 hPa 0,0 l/m 0 min 0 min 26 W/m 3,2 km/h (1 Bft) 95,74 %
30.05.2022 06:16 9,2 C 8,9 C 5,6 C 86 % 1013,1 hPa 0,0 l/m 0 min 0 min 28 W/m 9,7 km/h (2 Bft) 95,74 %
30.05.2022 06:18 9,2 C 8,9 C 5,6 C 86 % 1013,0 hPa 0,0 l/m 0 min 0 min 30 W/m 6,4 km/h (2 Bft) 93,62 %
30.05.2022 06:20 9,2 C 8,9 C 5,6 C 86 % 1013,1 hPa 0,0 l/m 0 min 0 min 32 W/m 3,2 km/h (1 Bft) 95,65 %
30.05.2022 06:22 9,3 C 8,9 C 5,6 C 86 % 1013,1 hPa 0,0 l/m 0 min 0 min 33 W/m 3,2 km/h (1 Bft) 95,74 %
30.05.2022 06:24 9,3 C 8,9 C 5,6 C 86 % 1013,1 hPa 0,0 l/m 0 min 0 min 33 W/m 3,2 km/h (1 Bft) 95,74 %
30.05.2022 06:26 9,3 C 8,9 C 5,6 C 86 % 1013,1 hPa 0,0 l/m 0 min 0 min 33 W/m 6,4 km/h (2 Bft) 95,74 %
30.05.2022 06:28 9,3 C 8,9 C 5,6 C 86 % 1013,2 hPa 0,0 l/m 0 min 0 min 33 W/m 0,0 km/h (0 Bft) 97,87 %
30.05.2022 06:30 9,3 C 8,9 C 5,6 C 86 % 1013,1 hPa 0,0 l/m 0 min 0 min 29 W/m 3,2 km/h (1 Bft) 95,65 %
30.05.2022 06:32 9,4 C 8,9 C 5,6 C 86 % 1013,1 hPa 0,0 l/m 0 min 0 min 27 W/m 3,2 km/h (1 Bft) 97,87 %
30.05.2022 06:34 9,4 C 8,9 C 6,1 C 86 % 1013,1 hPa 0,0 l/m 0 min 0 min 27 W/m 3,2 km/h (1 Bft) 100,00 %
30.05.2022 06:36 9,4 C 8,9 C 5,6 C 86 % 1013,2 hPa 0,0 l/m 0 min 0 min 28 W/m 6,4 km/h (2 Bft) 97,87 %
30.05.2022 06:38 9,4 C 8,9 C 5,6 C 86 % 1013,1 hPa 0,0 l/m 0 min 0 min 31 W/m 6,4 km/h (2 Bft) 95,74 %
30.05.2022 06:40 9,4 C 8,9 C 5,6 C 86 % 1013,2 hPa 0,0 l/m 0 min 0 min 34 W/m 3,2 km/h (1 Bft) 100,00 %
30.05.2022 06:42 9,4 C 8,9 C 5,6 C 86 % 1013,1 hPa 0,0 l/m 0 min 0 min 36 W/m 6,4 km/h (2 Bft) 100,00 %
30.05.2022 06:44 9,5 C 8,9 C 5,6 C 86 % 1013,1 hPa 0,0 l/m 0 min 0 min 38 W/m 3,2 km/h (1 Bft) 100,00 %
30.05.2022 06:46 9,5 C 8,9 C 5,6 C 86 % 1013,2 hPa 0,0 l/m 0 min 0 min 40 W/m 3,2 km/h (1 Bft) 100,00 %
30.05.2022 06:48 9,5 C 8,9 C 5,6 C 86 % 1013,1 hPa 0,0 l/m 0 min 0 min 41 W/m 3,2 km/h (1 Bft) 97,87 %
30.05.2022 06:50 9,5 C 9,4 C 5,6 C 86 % 1013,2 hPa 0,0 l/m 0 min 0 min 43 W/m 3,2 km/h (1 Bft) 100,00 %
30.05.2022 06:54 9,5 C 9,4 C 5,6 C 86 % 1013,2 hPa 0,0 l/m 0 min 0 min 47 W/m 3,2 km/h (1 Bft) 100,00 %
30.05.2022 06:56 9,5 C 9,4 C 5,6 C 86 % 1013,2 hPa 0,0 l/m 0 min 0 min 48 W/m 3,2 km/h (1 Bft) 100,00 %
30.05.2022 06:58 9,6 C 9,4 C 6,1 C 86 % 1013,2 hPa 0,0 l/m 0 min 0 min 49 W/m 3,2 km/h (1 Bft) 100,00 %
30.05.2022 07:00 9,6 C 9,4 C 6,1 C 86 % 1013,2 hPa 0,0 l/m 0 min 0 min 49 W/m 3,2 km/h (1 Bft) 97,83 %
30.05.2022 07:02 9,6 C 9,4 C 6,1 C 86 % 1013,2 hPa 0,0 l/m 0 min 0 min 48 W/m 6,4 km/h (2 Bft) 100,00 %
30.05.2022 07:04 9,6 C 9,4 C 6,1 C 86 % 1013,2 hPa 0,0 l/m 0 min 0 min 47 W/m 3,2 km/h (1 Bft) 100,00 %
30.05.2022 07:06 9,6 C 9,4 C 6,1 C 86 % 1013,2 hPa 0,0 l/m 0 min 0 min 46 W/m 6,4 km/h (2 Bft) 100,00 %
30.05.2022 07:08 9,6 C 9,4 C 6,1 C 86 % 1013,2 hPa 0,0 l/m 0 min 0 min 48 W/m 3,2 km/h (1 Bft) 100,00 %
30.05.2022 07:10 9,6 C 9,4 C 6,1 C 86 % 1013,3 hPa 0,0 l/m 0 min 0 min 50 W/m 0,0 km/h (0 Bft) 100,00 %
30.05.2022 07:12 9,6 C 9,4 C 6,1 C 86 % 1013,3 hPa 0,0 l/m 0 min 0 min 51 W/m 0,0 km/h (0 Bft) 97,83 %
30.05.2022 07:14 9,6 C 9,4 C 6,1 C 86 % 1013,3 hPa 0,0 l/m 0 min 0 min 53 W/m 3,2 km/h (1 Bft) 100,00 %
30.05.2022 07:16 9,7 C 9,4 C 6,1 C 86 % 1013,3 hPa 0,0 l/m 0 min 0 min 57 W/m 3,2 km/h (1 Bft) 100,00 %
30.05.2022 07:18 9,7 C 9,4 C 6,1 C 86 % 1013,3 hPa 0,0 l/m 0 min 0 min 59 W/m 9,7 km/h (2 Bft) 100,00 %
30.05.2022 07:20 9,7 C 9,4 C 6,1 C 86 % 1013,4 hPa 0,0 l/m 0 min 0 min 59 W/m 3,2 km/h (1 Bft) 97,87 %
30.05.2022 07:22 9,7 C 9,4 C 6,1 C 86 % 1013,4 hPa 0,0 l/m 0 min 0 min 58 W/m 6,4 km/h (2 Bft) 97,87 %
30.05.2022 07:24 9,7 C 9,4 C 6,1 C 86 % 1013,4 hPa 0,0 l/m 0 min 0 min 58 W/m 3,2 km/h (1 Bft) 97,83 %
30.05.2022 07:26 9,7 C 9,4 C 6,1 C 86 % 1013,4 hPa 0,0 l/m 0 min 0 min 64 W/m 6,4 km/h (2 Bft) 95,74 %
30.05.2022 07:28 9,8 C 9,4 C 6,1 C 86 % 1013,4 hPa 0,0 l/m 0 min 0 min 72 W/m 6,4 km/h (2 Bft) 97,87 %
30.05.2022 07:30 9,8 C 9,4 C 6,1 C 86 % 1013,4 hPa 0,0 l/m 0 min 0 min 80 W/m 6,4 km/h (2 Bft) 97,87 %
30.05.2022 07:32 9,8 C 10,0 C 6,1 C 87 % 1013,5 hPa 0,0 l/m 0 min 0 min 86 W/m 3,2 km/h (1 Bft) 97,87 %
30.05.2022 07:34 9,8 C 10,0 C 6,1 C 87 % 1013,5 hPa 0,0 l/m 0 min 0 min 92 W/m 6,4 km/h (2 Bft) 93,62 %
30.05.2022 07:36 9,9 C 10,0 C 6,1 C 86 % 1013,5 hPa 0,0 l/m 0 min 0 min 95 W/m 9,7 km/h (2 Bft) 97,83 %
30.05.2022 07:38 9,9 C 10,0 C 6,1 C 86 % 1013,6 hPa 0,0 l/m 0 min 0 min 99 W/m 3,2 km/h (1 Bft) 97,87 %
30.05.2022 07:40 9,9 C 10,0 C 6,1 C 86 % 1013,6 hPa 0,0 l/m 0 min 0 min 108 W/m 3,2 km/h (1 Bft) 97,87 %
30.05.2022 07:42 9,9 C 10,0 C 6,7 C 86 % 1013,6 hPa 0,0 l/m 0 min 0 min 127 W/m 9,7 km/h (2 Bft) 95,74 %
30.05.2022 07:44 9,9 C 10,0 C 6,7 C 86 % 1013,5 hPa 0,0 l/m 0 min 0 min 147 W/m 3,2 km/h (1 Bft) 95,74 %
30.05.2022 07:46 10,0 C 10,6 C 6,7 C 86 % 1013,6 hPa 0,0 l/m 2 min 0 min 159 W/m 3,2 km/h (1 Bft) 95,74 %
30.05.2022 07:48 10,1 C 10,6 C 6,7 C 86 % 1013,5 hPa 0,0 l/m 0 min 0 min 157 W/m 6,4 km/h (2 Bft) 95,65 %
30.05.2022 07:50 10,1 C 10,6 C 6,7 C 86 % 1013,6 hPa 0,0 l/m 0 min 2 min 154 W/m 6,4 km/h (2 Bft) 95,74 %
30.05.2022 07:52 10,1 C 10,6 C 6,7 C 86 % 1013,5 hPa 0,0 l/m 0 min 2 min 150 W/m 6,4 km/h (2 Bft) 93,62 %
30.05.2022 07:54 10,2 C 10,6 C 6,7 C 86 % 1013,6 hPa 0,0 l/m 0 min 0 min 148 W/m 3,2 km/h (1 Bft) 95,74 %
30.05.2022 07:56 10,2 C 10,6 C 6,7 C 86 % 1013,6 hPa 0,0 l/m 0 min 0 min 161 W/m 6,4 km/h (2 Bft) 95,74 %
30.05.2022 07:58 10,2 C 10,6 C 6,7 C 86 % 1013,6 hPa 0,0 l/m 2 min 0 min 181 W/m 3,2 km/h (1 Bft) 95,74 %
30.05.2022 08:00 10,3 C 10,6 C 6,7 C 86 % 1013,6 hPa 0,0 l/m 2 min 0 min 207 W/m 6,4 km/h (2 Bft) 95,65 %
30.05.2022 08:02 10,3 C 10,6 C 6,7 C 86 % 1013,6 hPa 0,0 l/m 2 min 0 min 201 W/m 6,4 km/h (2 Bft) 93,62 %
30.05.2022 08:04 10,3 C 11,1 C 6,7 C 86 % 1013,6 hPa 0,0 l/m 2 min 0 min 254 W/m 6,4 km/h (2 Bft) 95,74 %
30.05.2022 08:06 10,4 C 11,1 C 7,2 C 85 % 1013,6 hPa 0,0 l/m 2 min 0 min 234 W/m 3,2 km/h (1 Bft) 95,74 %
30.05.2022 08:08 10,4 C 11,7 C 7,2 C 85 % 1013,6 hPa 0,0 l/m 2 min 0 min 184 W/m 3,2 km/h (1 Bft) 95,74 %
30.05.2022 08:10 10,5 C 11,7 C 7,2 C 85 % 1013,6 hPa 0,0 l/m 2 min 0 min 190 W/m 6,4 km/h (2 Bft) 97,87 %
30.05.2022 08:12 10,6 C 11,7 C 7,2 C 85 % 1013,6 hPa 0,0 l/m 2 min 0 min 221 W/m 6,4 km/h (2 Bft) 93,48 %
30.05.2022 08:14 10,6 C 11,7 C 7,2 C 84 % 1013,6 hPa 0,0 l/m 2 min 0 min 237 W/m 6,4 km/h (2 Bft) 97,87 %
30.05.2022 08:16 10,7 C 11,7 C 7,2 C 84 % 1013,6 hPa 0,0 l/m 2 min 0 min 212 W/m 3,2 km/h (1 Bft) 97,87 %
30.05.2022 08:18 10,7 C 11,7 C 7,2 C 84 % 1013,7 hPa 0,0 l/m 2 min 0 min 232 W/m 6,4 km/h (2 Bft) 95,74 %
30.05.2022 08:20 10,8 C 12,2 C 7,8 C 84 % 1013,7 hPa 0,0 l/m 2 min 0 min 295 W/m 6,4 km/h (2 Bft) 97,87 %
30.05.2022 08:22 10,8 C 12,2 C 7,8 C 83 % 1013,6 hPa 0,0 l/m 2 min 0 min 271 W/m 6,4 km/h (2 Bft) 97,83 %
30.05.2022 08:24 10,9 C 12,2 C 7,8 C 83 % 1013,7 hPa 0,0 l/m 2 min 0 min 208 W/m 6,4 km/h (2 Bft) 100,00 %
30.05.2022 08:26 10,9 C 12,2 C 7,8 C 83 % 1013,7 hPa 0,0 l/m 2 min 0 min 212 W/m 6,4 km/h (2 Bft) 100,00 %
30.05.2022 08:28 11,1 C 12,2 C 7,8 C 83 % 1013,7 hPa 0,0 l/m 2 min 0 min 220 W/m 6,4 km/h (2 Bft) 97,87 %
30.05.2022 08:30 11,2 C 12,8 C 7,8 C 83 % 1013,7 hPa 0,0 l/m 2 min 0 min 226 W/m 6,4 km/h (2 Bft) 100,00 %
30.05.2022 08:32 11,2 C 12,8 C 7,8 C 82 % 1013,7 hPa 0,0 l/m 2 min 0 min 235 W/m 3,2 km/h (1 Bft) 100,00 %
30.05.2022 08:34 11,3 C 12,8 C 7,8 C 82 % 1013,7 hPa 0,0 l/m 2 min 0 min 239 W/m 12,9 km/h (3 Bft) 100,00 %
30.05.2022 08:36 11,3 C 12,2 C 7,8 C 82 % 1013,7 hPa 0,0 l/m 2 min 0 min 238 W/m 9,7 km/h (2 Bft) 100,00 %
30.05.2022 08:38 11,3 C 12,2 C 7,8 C 81 % 1013,7 hPa 0,0 l/m 2 min 0 min 243 W/m 6,4 km/h (2 Bft) 100,00 %
30.05.2022 08:40 11,4 C 12,8 C 7,8 C 81 % 1013,7 hPa 0,0 l/m 2 min 0 min 262 W/m 6,4 km/h (2 Bft) 100,00 %
30.05.2022 08:42 11,4 C 12,8 C 8,3 C 81 % 1013,8 hPa 0,0 l/m 2 min 0 min 309 W/m 3,2 km/h (1 Bft) 95,74 %
30.05.2022 08:44 11,5 C 12,8 C 8,3 C 81 % 1013,8 hPa 0,0 l/m 2 min 0 min 273 W/m 3,2 km/h (1 Bft) 100,00 %
30.05.2022 08:46 11,6 C 12,8 C 8,3 C 81 % 1013,8 hPa 0,0 l/m 2 min 0 min 240 W/m 12,9 km/h (3 Bft) 100,00 %
30.05.2022 08:48 11,6 C 12,2 C 8,3 C 80 % 1013,8 hPa 0,0 l/m 2 min 0 min 237 W/m 6,4 km/h (2 Bft) 100,00 %
30.05.2022 08:50 11,6 C 12,2 C 8,3 C 80 % 1013,9 hPa 0,0 l/m 2 min 0 min 239 W/m 12,9 km/h (3 Bft) 100,00 %
30.05.2022 08:52 11,6 C 12,2 C 8,3 C 79 % 1013,9 hPa 0,0 l/m 2 min 0 min 243 W/m 9,7 km/h (2 Bft) 93,62 %
30.05.2022 08:54 11,7 C 12,2 C 8,3 C 79 % 1013,9 hPa 0,0 l/m 2 min 0 min 249 W/m 9,7 km/h (2 Bft) 97,87 %
30.05.2022 08:56 11,6 C 12,2 C 8,3 C 79 % 1013,9 hPa 0,0 l/m 2 min 0 min 248 W/m 6,4 km/h (2 Bft) 100,00 %
30.05.2022 08:58 11,6 C 12,2 C 8,3 C 79 % 1013,9 hPa 0,0 l/m 0 min 0 min 239 W/m 9,7 km/h (2 Bft) 100,00 %
30.05.2022 09:00 11,6 C 12,8 C 8,3 C 79 % 1013,9 hPa 0,0 l/m 0 min 0 min 234 W/m 6,4 km/h (2 Bft) 97,87 %
30.05.2022 09:02 11,6 C 12,8 C 8,3 C 79 % 1014,0 hPa 0,0 l/m 0 min 0 min 227 W/m 9,7 km/h (2 Bft) 100,00 %
30.05.2022 09:04 11,6 C 12,2 C 8,3 C 79 % 1013,9 hPa 0,0 l/m 0 min 0 min 228 W/m 6,4 km/h (2 Bft) 97,87 %
30.05.2022 09:06 11,6 C 12,2 C 8,3 C 79 % 1013,9 hPa 0,0 l/m 0 min 0 min 242 W/m 6,4 km/h (2 Bft) 100,00 %
30.05.2022 09:08 11,6 C 12,2 C 8,3 C 79 % 1014,0 hPa 0,0 l/m 0 min 0 min 254 W/m 6,4 km/h (2 Bft) 97,87 %
30.05.2022 09:10 11,6 C 12,2 C 8,3 C 78 % 1013,9 hPa 0,0 l/m 2 min 0 min 259 W/m 9,7 km/h (2 Bft) 97,83 %
30.05.2022 09:12 11,6 C 12,8 C 8,3 C 78 % 1014,0 hPa 0,0 l/m 2 min 0 min 264 W/m 6,4 km/h (2 Bft) 95,74 %
30.05.2022 09:14 11,6 C 12,8 C 8,3 C 78 % 1014,0 hPa 0,0 l/m 2 min 0 min 288 W/m 6,4 km/h (2 Bft) 97,87 %
30.05.2022 09:16 11,7 C 12,8 C 8,9 C 78 % 1014,0 hPa 0,0 l/m 2 min 0 min 292 W/m 6,4 km/h (2 Bft) 97,87 %
30.05.2022 09:18 11,7 C 12,8 C 8,9 C 77 % 1014,0 hPa 0,0 l/m 2 min 0 min 285 W/m 3,2 km/h (1 Bft) 97,87 %
30.05.2022 09:20 11,7 C 12,8 C 8,9 C 78 % 1014,0 hPa 0,0 l/m 2 min 0 min 283 W/m 6,4 km/h (2 Bft) 97,87 %
30.05.2022 09:22 11,7 C 12,8 C 8,9 C 77 % 1014,0 hPa 0,0 l/m 2 min 0 min 298 W/m 6,4 km/h (2 Bft) 97,83 %
30.05.2022 09:24 11,8 C 12,8 C 8,9 C 77 % 1013,9 hPa 0,0 l/m 2 min 0 min 328 W/m 3,2 km/h (1 Bft) 97,87 %
30.05.2022 09:26 11,8 C 13,3 C 8,9 C 77 % 1014,0 hPa 0,0 l/m 2 min 0 min 344 W/m 12,9 km/h (3 Bft) 95,74 %
30.05.2022 09:28 11,8 C 13,9 C 9,4 C 77 % 1014,0 hPa 0,0 l/m 2 min 0 min 341 W/m 6,4 km/h (2 Bft) 97,87 %
30.05.2022 09:30 11,9 C 13,9 C 9,4 C 77 % 1014,0 hPa 0,0 l/m 2 min 0 min 347 W/m 9,7 km/h (2 Bft) 97,87 %
30.05.2022 09:32 12,0 C 14,4 C 9,4 C 77 % 1014,0 hPa 0,0 l/m 2 min 0 min 384 W/m 12,9 km/h (3 Bft) 97,83 %
30.05.2022 09:34 12,1 C 13,9 C 9,4 C 76 % 1014,1 hPa 0,0 l/m 2 min 0 min 283 W/m 16,1 km/h (3 Bft) 97,87 %
30.05.2022 09:36 12,1 C 13,3 C 9,4 C 75 % 1014,0 hPa 0,0 l/m 0 min 0 min 266 W/m 6,4 km/h (2 Bft) 97,87 %
30.05.2022 09:38 12,1 C 13,3 C 9,4 C 75 % 1014,0 hPa 0,0 l/m 0 min 0 min 280 W/m 12,9 km/h (3 Bft) 97,87 %
30.05.2022 09:40 12,1 C 13,3 C 8,9 C 76 % 1014,0 hPa 0,0 l/m 2 min 0 min 300 W/m 3,2 km/h (1 Bft) 97,87 %
30.05.2022 09:42 12,0 C 12,8 C 8,9 C 76 % 1014,1 hPa 0,0 l/m 2 min 0 min 309 W/m 9,7 km/h (2 Bft) 97,87 %
30.05.2022 09:44 12,0 C 13,3 C 9,4 C 75 % 1014,0 hPa 0,0 l/m 2 min 0 min 390 W/m 6,4 km/h (2 Bft) 97,87 %
30.05.2022 09:46 12,1 C 14,4 C 9,4 C 75 % 1014,1 hPa 0,0 l/m 2 min 0 min 392 W/m 9,7 km/h (2 Bft) 95,65 %
30.05.2022 09:48 12,1 C 15,0 C 10,0 C 75 % 1014,0 hPa 0,0 l/m 2 min 0 min 448 W/m 6,4 km/h (2 Bft) 97,87 %
30.05.2022 09:50 12,2 C 15,6 C 10,6 C 75 % 1014,0 hPa 0,0 l/m 2 min 0 min 533 W/m 9,7 km/h (2 Bft) 97,87 %
30.05.2022 09:52 12,2 C 15,6 C 11,1 C 74 % 1014,0 hPa 0,0 l/m 2 min 0 min 619 W/m 6,4 km/h (2 Bft) 97,87 %
30.05.2022 09:54 12,3 C 16,1 C 11,1 C 74 % 1014,0 hPa 0,0 l/m 2 min 0 min 521 W/m 9,7 km/h (2 Bft) 95,74 %
30.05.2022 09:56 12,4 C 16,1 C 11,1 C 73 % 1014,0 hPa 0,0 l/m 2 min 0 min 415 W/m 9,7 km/h (2 Bft) 91,30 %
30.05.2022 09:58 12,5 C 16,1 C 11,7 C 73 % 1014,0 hPa 0,0 l/m 2 min 0 min 519 W/m 12,9 km/h (3 Bft) 93,62 %
30.05.2022 10:00 12,7 C 16,7 C 11,7 C 73 % 1014,0 hPa 0,0 l/m 2 min 0 min 510 W/m 6,4 km/h (2 Bft) 93,62 %
30.05.2022 10:02 12,7 C 16,1 C 11,1 C 72 % 1014,0 hPa 0,0 l/m 2 min 0 min 440 W/m 6,4 km/h (2 Bft) 93,62 %
30.05.2022 10:04 12,8 C 15,6 C 10,6 C 71 % 1014,0 hPa 0,0 l/m 0 min 0 min 178 W/m 6,4 km/h (2 Bft) 93,62 %
30.05.2022 10:06 12,8 C 14,4 C 10,0 C 71 % 1014,1 hPa 0,0 l/m 0 min 0 min 173 W/m 6,4 km/h (2 Bft) 93,62 %
30.05.2022 10:08 12,7 C 14,4 C 10,0 C 71 % 1014,1 hPa 0,0 l/m 0 min 0 min 171 W/m 6,4 km/h (2 Bft) 91,67 %
30.05.2022 10:10 12,7 C 13,9 C 9,4 C 70 % 1014,1 hPa 0,0 l/m 0 min 0 min 179 W/m 6,4 km/h (2 Bft) 93,62 %
30.05.2022 10:12 12,7 C 13,3 C 9,4 C 70 % 1014,1 hPa 0,0 l/m 0 min 0 min 228 W/m 3,2 km/h (1 Bft) 93,62 %
30.05.2022 10:14 12,7 C 13,3 C 10,0 C 70 % 1014,1 hPa 0,0 l/m 0 min 0 min 271 W/m 6,4 km/h (2 Bft) 93,62 %
30.05.2022 10:16 12,7 C 14,4 C 11,1 C 71 % 1014,0 hPa 0,0 l/m 2 min 0 min 673 W/m 6,4 km/h (2 Bft) 93,62 %
30.05.2022 10:18 12,7 C 14,4 C 11,7 C 71 % 1014,0 hPa 0,0 l/m 2 min 0 min 793 W/m 9,7 km/h (2 Bft) 93,62 %
30.05.2022 10:20 12,7 C 15,6 C 12,2 C 69 % 1014,0 hPa 0,0 l/m 2 min 0 min 814 W/m 6,4 km/h (2 Bft) 91,30 %
30.05.2022 10:22 12,8 C 16,1 C 13,3 C 69 % 1014,0 hPa 0,0 l/m 2 min 0 min 890 W/m 9,7 km/h (2 Bft) 91,49 %
30.05.2022 10:24 12,9 C 16,1 C 13,3 C 68 % 1014,0 hPa 0,0 l/m 2 min 0 min 878 W/m 12,9 km/h (3 Bft) 91,49 %
30.05.2022 10:26 13,1 C 16,1 C 13,9 C 68 % 1014,0 hPa 0,0 l/m 2 min 0 min 862 W/m 6,4 km/h (2 Bft) 91,49 %
30.05.2022 10:28 13,1 C 16,1 C 13,9 C 66 % 1014,0 hPa 0,0 l/m 2 min 0 min 876 W/m 9,7 km/h (2 Bft) 93,62 %
30.05.2022 10:30 13,2 C 16,1 C 15,0 C 65 % 1014,0 hPa 0,0 l/m 2 min 0 min 903 W/m 6,4 km/h (2 Bft) 93,62 %
30.05.2022 10:32 13,3 C 16,1 C 15,0 C 65 % 1014,0 hPa 0,0 l/m 2 min 0 min 920 W/m 9,7 km/h (2 Bft) 95,74 %
30.05.2022 10:34 13,5 C 16,1 C 16,1 C 66 % 1014,0 hPa 0,0 l/m 2 min 0 min 941 W/m 3,2 km/h (1 Bft) 97,87 %
30.05.2022 10:36 13,6 C 16,1 C 16,7 C 66 % 1014,0 hPa 0,0 l/m 2 min 0 min 956 W/m 9,7 km/h (2 Bft) 95,74 %
30.05.2022 10:38 13,8 C 16,1 C 16,7 C 66 % 1014,0 hPa 0,0 l/m 2 min 0 min 970 W/m 3,2 km/h (1 Bft) 97,87 %
30.05.2022 10:40 13,9 C 15,6 C 16,7 C 65 % 1014,0 hPa 0,0 l/m 2 min 0 min 966 W/m 6,4 km/h (2 Bft) 97,87 %
30.05.2022 10:42 14,0 C 15,6 C 16,7 C 65 % 1014,0 hPa 0,0 l/m 2 min 0 min 965 W/m 6,4 km/h (2 Bft) 97,87 %
30.05.2022 10:44 14,1 C 15,6 C 15,6 C 65 % 1014,0 hPa 0,0 l/m 2 min 0 min 775 W/m 6,4 km/h (2 Bft) 95,65 %
30.05.2022 10:46 14,2 C 15,0 C 13,9 C 65 % 1014,1 hPa 0,0 l/m 0 min 0 min 238 W/m 9,7 km/h (2 Bft) 97,87 %
30.05.2022 10:48 14,2 C 14,4 C 12,8 C 65 % 1014,1 hPa 0,0 l/m 0 min 0 min 214 W/m 6,4 km/h (2 Bft) 95,74 %
30.05.2022 10:50 14,2 C 14,4 C 12,2 C 65 % 1014,1 hPa 0,0 l/m 0 min 0 min 206 W/m 3,2 km/h (1 Bft) 97,87 %
30.05.2022 10:52 14,3 C 14,4 C 11,7 C 66 % 1014,1 hPa 0,0 l/m 0 min 0 min 207 W/m 6,4 km/h (2 Bft) 97,87 %
30.05.2022 10:54 14,1 C 14,4 C 11,1 C 66 % 1014,1 hPa 0,0 l/m 0 min 0 min 207 W/m 6,4 km/h (2 Bft) 95,74 %
30.05.2022 10:56 14,0 C 13,9 C 11,1 C 66 % 1014,1 hPa 0,0 l/m 0 min 0 min 217 W/m 6,4 km/h (2 Bft) 95,65 %
30.05.2022 10:58 13,9 C 13,9 C 10,6 C 67 % 1014,1 hPa 0,0 l/m 0 min 0 min 231 W/m 3,2 km/h (1 Bft) 97,87 %
30.05.2022 11:00 13,8 C 13,3 C 10,6 C 66 % 1014,1 hPa 0,0 l/m 0 min 0 min 256 W/m 3,2 km/h (1 Bft) 100,00 %
30.05.2022 11:02 13,8 C 13,3 C 10,6 C 66 % 1014,1 hPa 0,0 l/m 0 min 0 min 273 W/m 3,2 km/h (1 Bft) 100,00 %
30.05.2022 11:04 13,7 C 13,9 C 10,6 C 67 % 1014,1 hPa 0,0 l/m 0 min 0 min 271 W/m 3,2 km/h (1 Bft) 100,00 %
30.05.2022 11:06 13,6 C 13,3 C 10,6 C 66 % 1014,1 hPa 0,0 l/m 0 min 0 min 273 W/m 6,4 km/h (2 Bft) 100,00 %
30.05.2022 11:08 13,6 C 13,9 C 10,6 C 67 % 1014,1 hPa 0,0 l/m 0 min 0 min 280 W/m 6,4 km/h (2 Bft) 100,00 %
30.05.2022 11:10 13,5 C 13,3 C 10,6 C 66 % 1014,1 hPa 0,0 l/m 0 min 0 min 264 W/m 3,2 km/h (1 Bft) 100,00 %
30.05.2022 11:12 13,4 C 13,3 C 10,0 C 66 % 1014,1 hPa 0,0 l/m 0 min 0 min 229 W/m 6,4 km/h (2 Bft) 97,87 %
30.05.2022 11:14 13,3 C 13,3 C 10,0 C 65 % 1014,1 hPa 0,0 l/m 0 min 0 min 209 W/m 9,7 km/h (2 Bft) 97,87 %
30.05.2022 11:16 13,2 C 13,3 C 10,0 C 66 % 1014,2 hPa 0,0 l/m 0 min 0 min 189 W/m 6,4 km/h (2 Bft) 97,87 %
30.05.2022 11:18 13,2 C 13,3 C 10,0 C 67 % 1014,2 hPa 0,0 l/m 0 min 0 min 182 W/m 9,7 km/h (2 Bft) 100,00 %
30.05.2022 11:20 13,1 C 12,8 C 10,0 C 68 % 1014,2 hPa 0,0 l/m 0 min 0 min 183 W/m 6,4 km/h (2 Bft) 100,00 %
30.05.2022 11:22 13,1 C 12,8 C 10,0 C 69 % 1014,2 hPa 0,0 l/m 0 min 0 min 186 W/m 6,4 km/h (2 Bft) 100,00 %
30.05.2022 11:24 13,0 C 12,8 C 10,0 C 68 % 1014,2 hPa 0,0 l/m 0 min 0 min 188 W/m 3,2 km/h (1 Bft) 100,00 %
30.05.2022 11:26 13,0 C 13,3 C 9,4 C 68 % 1014,1 hPa 0,0 l/m 0 min 0 min 191 W/m 6,4 km/h (2 Bft) 100,00 %
30.05.2022 11:28 12,9 C 12,8 C 9,4 C 67 % 1014,1 hPa 0,0 l/m 0 min 0 min 195 W/m 3,2 km/h (1 Bft) 100,00 %
30.05.2022 11:30 12,9 C 13,3 C 9,4 C 68 % 1014,2 hPa 0,0 l/m 0 min 0 min 248 W/m 6,4 km/h (2 Bft) 100,00 %
30.05.2022 11:32 12,9 C 13,3 C 10,0 C 67 % 1014,2 hPa 0,0 l/m 0 min 0 min 304 W/m 6,4 km/h (2 Bft) 100,00 %
30.05.2022 11:34 12,8 C 14,4 C 11,7 C 67 % 1014,1 hPa 0,0 l/m 2 min 0 min 1014 W/m 3,2 km/h (1 Bft) 100,00 %
30.05.2022 11:36 12,9 C 16,7 C 13,3 C 68 % 1014,1 hPa 0,0 l/m 2 min 0 min 1072 W/m 6,4 km/h (2 Bft) 100,00 %
30.05.2022 11:38 13,2 C 17,2 C 15,0 C 67 % 1014,1 hPa 0,0 l/m 2 min 0 min 1086 W/m 3,2 km/h (1 Bft) 100,00 %
30.05.2022 11:40 13,5 C 17,8 C 16,7 C 66 % 1014,1 hPa 0,0 l/m 2 min 0 min 1109 W/m 3,2 km/h (1 Bft) 100,00 %
30.05.2022 11:42 13,7 C 18,3 C 16,1 C 66 % 1014,1 hPa 0,0 l/m 2 min 0 min 802 W/m 6,4 km/h (2 Bft) 97,87 %
30.05.2022 11:44 14,1 C 18,9 C 15,6 C 65 % 1014,0 hPa 0,0 l/m 2 min 0 min 1077 W/m 6,4 km/h (2 Bft) 100,00 %
30.05.2022 11:46 14,3 C 19,4 C 16,1 C 64 % 1014,0 hPa 0,0 l/m 2 min 0 min 807 W/m 6,4 km/h (2 Bft) 100,00 %
30.05.2022 11:48 14,6 C 18,9 C 15,0 C 63 % 1014,0 hPa 0,0 l/m 2 min 0 min 809 W/m 6,4 km/h (2 Bft) 100,00 %
30.05.2022 11:50 14,8 C 18,3 C 14,4 C 62 % 1014,0 hPa 0,0 l/m 2 min 0 min 878 W/m 9,7 km/h (2 Bft) 100,00 %
30.05.2022 11:52 14,9 C 17,2 C 13,3 C 60 % 1014,0 hPa 0,0 l/m 0 min 0 min 290 W/m 6,4 km/h (2 Bft) 100,00 %
30.05.2022 11:54 14,9 C 16,7 C 12,2 C 60 % 1014,0 hPa 0,0 l/m 0 min 0 min 256 W/m 6,4 km/h (2 Bft) 100,00 %
30.05.2022 11:56 14,9 C 16,1 C 11,7 C 59 % 1014,0 hPa 0,0 l/m 0 min 0 min 251 W/m 12,9 km/h (3 Bft) 100,00 %
30.05.2022 11:58 14,6 C 15,6 C 11,7 C 60 % 1014,0 hPa 0,0 l/m 0 min 0 min 276 W/m 9,7 km/h (2 Bft) 100,00 %
30.05.2022 12:00 14,5 C 15,0 C 11,1 C 60 % 1014,0 hPa 0,0 l/m 0 min 0 min 309 W/m 6,4 km/h (2 Bft) 100,00 %
30.05.2022 12:02 14,3 C 15,0 C 11,1 C 61 % 1014,0 hPa 0,0 l/m 0 min 0 min 325 W/m 9,7 km/h (2 Bft) 97,87 %
30.05.2022 12:04 14,3 C 14,4 C 11,1 C 61 % 1014,0 hPa 0,0 l/m 0 min 0 min 332 W/m 9,7 km/h (2 Bft) 100,00 %
30.05.2022 12:08 14,3 C 15,0 C 11,1 C 60 % 1014,1 hPa 0,0 l/m 0 min 0 min 374 W/m 6,4 km/h (2 Bft) 96,77 %
30.05.2022 12:10 14,3 C 15,0 C 11,7 C 59 % 1014,1 hPa 0,0 l/m 2 min 0 min 419 W/m 3,2 km/h (1 Bft) 97,87 %
30.05.2022 12:12 14,3 C 15,0 C 12,2 C 58 % 1014,0 hPa 0,0 l/m 2 min 0 min 483 W/m 3,2 km/h (1 Bft) 97,87 %
30.05.2022 12:14 14,3 C 15,6 C 12,8 C 59 % 1014,1 hPa 0,0 l/m 2 min 0 min 586 W/m 12,9 km/h (3 Bft) 95,74 %
30.05.2022 12:16 14,3 C 15,6 C 12,2 C 59 % 1014,1 hPa 0,0 l/m 2 min 0 min 418 W/m 9,7 km/h (2 Bft) 95,74 %
30.05.2022 12:18 14,3 C 15,6 C 12,2 C 62 % 1014,1 hPa 0,0 l/m 0 min 0 min 397 W/m 19,3 km/h (3 Bft) 95,74 %
30.05.2022 12:20 14,3 C 15,6 C 12,2 C 62 % 1014,2 hPa 0,0 l/m 0 min 0 min 399 W/m 16,1 km/h (3 Bft) 95,65 %
30.05.2022 12:22 14,3 C 15,6 C 12,2 C 60 % 1014,1 hPa 0,0 l/m 0 min 0 min 402 W/m 3,2 km/h (1 Bft) 95,74 %
30.05.2022 12:24 14,4 C 15,6 C 12,2 C 60 % 1014,2 hPa 0,0 l/m 2 min 0 min 419 W/m 9,7 km/h (2 Bft) 95,74 %
30.05.2022 12:26 14,4 C 15,6 C 12,2 C 59 % 1014,1 hPa 0,0 l/m 2 min 0 min 435 W/m 6,4 km/h (2 Bft) 93,62 %
30.05.2022 12:28 14,4 C 15,6 C 12,2 C 60 % 1014,1 hPa 0,0 l/m 2 min 0 min 437 W/m 6,4 km/h (2 Bft) 93,62 %
30.05.2022 12:30 14,5 C 15,6 C 12,2 C 59 % 1014,2 hPa 0,0 l/m 2 min 0 min 432 W/m 6,4 km/h (2 Bft) 95,74 %
30.05.2022 12:32 14,4 C 15,0 C 11,7 C 60 % 1014,2 hPa 0,0 l/m 2 min 0 min 429 W/m 6,4 km/h (2 Bft) 95,65 %
30.05.2022 12:34 14,3 C 15,0 C 11,7 C 60 % 1014,2 hPa 0,0 l/m 2 min 0 min 443 W/m 12,9 km/h (3 Bft) 95,74 %
30.05.2022 12:36 14,3 C 15,0 C 11,7 C 60 % 1014,2 hPa 0,0 l/m 2 min 0 min 449 W/m 12,9 km/h (3 Bft) 93,62 %
30.05.2022 12:38 14,3 C 15,6 C 11,7 C 61 % 1014,1 hPa 0,0 l/m 2 min 0 min 483 W/m 9,7 km/h (2 Bft) 95,74 %
30.05.2022 12:40 14,3 C 15,6 C 12,2 C 61 % 1014,2 hPa 0,0 l/m 2 min 0 min 506 W/m 12,9 km/h (3 Bft) 93,62 %
30.05.2022 12:42 14,3 C 16,1 C 12,2 C 60 % 1014,1 hPa 0,0 l/m 2 min 0 min 542 W/m 12,9 km/h (3 Bft) 95,74 %
30.05.2022 12:44 14,4 C 16,1 C 12,8 C 62 % 1014,2 hPa 0,0 l/m 2 min 0 min 608 W/m 9,7 km/h (2 Bft) 93,48 %
30.05.2022 12:46 14,6 C 16,1 C 12,2 C 62 % 1014,2 hPa 0,0 l/m 2 min 0 min 525 W/m 12,9 km/h (3 Bft) 95,74 %
30.05.2022 12:48 14,6 C 16,1 C 12,2 C 62 % 1014,2 hPa 0,0 l/m 2 min 0 min 486 W/m 6,4 km/h (2 Bft) 93,62 %
30.05.2022 12:50 14,6 C 15,6 C 12,2 C 61 % 1014,3 hPa 0,0 l/m 2 min 0 min 471 W/m 16,1 km/h (3 Bft) 95,74 %
30.05.2022 12:52 14,4 C 15,6 C 12,2 C 60 % 1014,2 hPa 0,0 l/m 2 min 0 min 498 W/m 6,4 km/h (2 Bft) 97,87 %
30.05.2022 12:54 14,4 C 15,6 C 12,2 C 62 % 1014,2 hPa 0,0 l/m 2 min 0 min 514 W/m 12,9 km/h (3 Bft) 100,00 %
30.05.2022 12:56 14,4 C 15,6 C 12,2 C 62 % 1014,3 hPa 0,0 l/m 2 min 0 min 512 W/m 12,9 km/h (3 Bft) 100,00 %
30.05.2022 12:58 14,3 C 15,6 C 12,2 C 61 % 1014,3 hPa 0,0 l/m 2 min 0 min 500 W/m 12,9 km/h (3 Bft) 100,00 %
30.05.2022 13:00 14,3 C 15,6 C 11,7 C 62 % 1014,3 hPa 0,0 l/m 2 min 0 min 475 W/m 16,1 km/h (3 Bft) 97,87 %
30.05.2022 13:02 14,3 C 15,6 C 12,2 C 62 % 1014,3 hPa 0,0 l/m 2 min 0 min 444 W/m 12,9 km/h (3 Bft) 95,74 %
30.05.2022 13:04 14,3 C 15,6 C 11,7 C 61 % 1014,3 hPa 0,0 l/m 0 min 0 min 418 W/m 3,2 km/h (1 Bft) 100,00 %
30.05.2022 13:06 14,3 C 15,6 C 11,7 C 62 % 1014,3 hPa 0,0 l/m 0 min 0 min 417 W/m 6,4 km/h (2 Bft) 100,00 %
30.05.2022 13:08 14,3 C 15,0 C 11,7 C 62 % 1014,3 hPa 0,0 l/m 2 min 0 min 420 W/m 6,4 km/h (2 Bft) 100,00 %
30.05.2022 13:10 14,4 C 15,6 C 11,7 C 63 % 1014,3 hPa 0,0 l/m 2 min 0 min 424 W/m 6,4 km/h (2 Bft) 100,00 %
30.05.2022 13:12 14,4 C 15,6 C 12,2 C 61 % 1014,3 hPa 0,0 l/m 2 min 0 min 428 W/m 16,1 km/h (3 Bft) 100,00 %
30.05.2022 13:14 14,4 C 15,0 C 11,7 C 61 % 1014,2 hPa 0,0 l/m 2 min 0 min 420 W/m 9,7 km/h (2 Bft) 100,00 %
30.05.2022 13:16 14,4 C 15,0 C 11,7 C 60 % 1014,3 hPa 0,0 l/m 0 min 0 min 404 W/m 12,9 km/h (3 Bft) 100,00 %
30.05.2022 13:18 14,3 C 15,0 C 11,7 C 62 % 1014,3 hPa 0,0 l/m 0 min 0 min 388 W/m 6,4 km/h (2 Bft) 100,00 %
30.05.2022 13:20 14,3 C 14,4 C 11,1 C 63 % 1014,3 hPa 0,0 l/m 0 min 0 min 387 W/m 12,9 km/h (3 Bft) 100,00 %
30.05.2022 13:22 14,3 C 15,0 C 11,1 C 64 % 1014,3 hPa 0,0 l/m 0 min 0 min 399 W/m 9,7 km/h (2 Bft) 100,00 %
30.05.2022 13:24 14,3 C 15,0 C 11,1 C 64 % 1014,4 hPa 0,0 l/m 0 min 0 min 407 W/m 12,9 km/h (3 Bft) 100,00 %
30.05.2022 13:26 14,3 C 15,0 C 11,1 C 62 % 1014,4 hPa 0,0 l/m 0 min 0 min 396 W/m 12,9 km/h (3 Bft) 100,00 %
30.05.2022 13:28 14,3 C 15,0 C 11,1 C 61 % 1014,4 hPa 0,0 l/m 0 min 0 min 380 W/m 12,9 km/h (3 Bft) 100,00 %
30.05.2022 13:30 14,3 C 15,0 C 11,1 C 60 % 1014,4 hPa 0,0 l/m 0 min 0 min 377 W/m 12,9 km/h (3 Bft) 100,00 %
30.05.2022 13:32 14,3 C 15,0 C 11,1 C 59 % 1014,4 hPa 0,0 l/m 0 min 0 min 383 W/m 12,9 km/h (3 Bft) 100,00 %
30.05.2022 13:34 14,2 C 15,0 C 11,1 C 60 % 1014,4 hPa 0,0 l/m 0 min 0 min 386 W/m 12,9 km/h (3 Bft) 100,00 %
30.05.2022 13:36 14,2 C 15,0 C 11,1 C 61 % 1014,4 hPa 0,0 l/m 0 min 0 min 383 W/m 6,4 km/h (2 Bft) 98,31 %
30.05.2022 13:38 14,3 C 15,6 C 11,7 C 62 % 1014,4 hPa 0,0 l/m 0 min 0 min 384 W/m 12,9 km/h (3 Bft) 100,00 %
30.05.2022 13:40 14,3 C 15,0 C 11,7 C 62 % 1014,4 hPa 0,0 l/m 0 min 0 min 387 W/m 6,4 km/h (2 Bft) 100,00 %
30.05.2022 13:42 14,3 C 15,0 C 11,7 C 62 % 1014,3 hPa 0,0 l/m 0 min 0 min 388 W/m 9,7 km/h (2 Bft) 100,00 %
30.05.2022 13:44 14,3 C 15,0 C 11,7 C 63 % 1014,3 hPa 0,0 l/m 0 min 0 min 386 W/m 9,7 km/h (2 Bft) 100,00 %
30.05.2022 13:46 14,3 C 15,0 C 11,7 C 61 % 1014,3 hPa 0,0 l/m 0 min 0 min 389 W/m 6,4 km/h (2 Bft) 100,00 %
30.05.2022 13:48 14,3 C 15,6 C 11,7 C 61 % 1014,3 hPa 0,0 l/m 0 min 0 min 401 W/m 6,4 km/h (2 Bft) 100,00 %
30.05.2022 13:50 14,4 C 15,6 C 11,7 C 60 % 1014,4 hPa 0,0 l/m 2 min 0 min 420 W/m 9,7 km/h (2 Bft) 100,00 %
30.05.2022 13:52 14,4 C 15,6 C 11,7 C 59 % 1014,4 hPa 0,0 l/m 2 min 0 min 438 W/m 6,4 km/h (2 Bft) 97,87 %
30.05.2022 13:54 14,5 C 16,1 C 12,2 C 60 % 1014,3 hPa 0,0 l/m 2 min 0 min 464 W/m 9,7 km/h (2 Bft) 97,87 %
30.05.2022 13:56 14,6 C 15,6 C 11,7 C 58 % 1014,3 hPa 0,0 l/m 2 min 0 min 517 W/m 12,9 km/h (3 Bft) 100,00 %
30.05.2022 13:58 14,6 C 16,7 C 12,2 C 58 % 1014,3 hPa 0,0 l/m 2 min 0 min 635 W/m 12,9 km/h (3 Bft) 97,83 %
30.05.2022 14:00 14,8 C 17,2 C 12,8 C 59 % 1014,3 hPa 0,0 l/m 2 min 0 min 668 W/m 6,4 km/h (2 Bft) 100,00 %
30.05.2022 14:02 14,9 C 17,2 C 12,8 C 58 % 1014,4 hPa 0,0 l/m 2 min 0 min 566 W/m 12,9 km/h (3 Bft) 100,00 %
30.05.2022 14:04 14,9 C 16,7 C 12,8 C 57 % 1014,4 hPa 0,0 l/m 2 min 0 min 517 W/m 6,4 km/h (2 Bft) 97,87 %
30.05.2022 14:06 14,9 C 16,1 C 12,8 C 56 % 1014,3 hPa 0,0 l/m 2 min 0 min 495 W/m 6,4 km/h (2 Bft) 100,00 %
30.05.2022 14:08 15,0 C 16,7 C 12,8 C 57 % 1014,3 hPa 0,0 l/m 2 min 0 min 519 W/m 3,2 km/h (1 Bft) 94,44 %
30.05.2022 14:10 15,1 C 16,7 C 12,8 C 58 % 1014,3 hPa 0,0 l/m 2 min 0 min 555 W/m 6,4 km/h (2 Bft) 100,00 %
30.05.2022 14:12 15,1 C 17,2 C 12,8 C 59 % 1014,3 hPa 0,0 l/m 2 min 0 min 594 W/m 6,4 km/h (2 Bft) 100,00 %
30.05.2022 14:14 15,2 C 16,7 C 12,8 C 58 % 1014,3 hPa 0,0 l/m 2 min 0 min 503 W/m 9,7 km/h (2 Bft) 100,00 %
30.05.2022 14:16 15,2 C 16,7 C 12,8 C 58 % 1014,4 hPa 0,0 l/m 2 min 0 min 447 W/m 6,4 km/h (2 Bft) 100,00 %
30.05.2022 14:18 15,2 C 16,7 C 12,8 C 58 % 1014,4 hPa 0,0 l/m 2 min 0 min 456 W/m 6,4 km/h (2 Bft) 97,87 %
30.05.2022 14:20 15,2 C 16,1 C 12,8 C 58 % 1014,3 hPa 0,0 l/m 2 min 0 min 495 W/m 6,4 km/h (2 Bft) 95,74 %
30.05.2022 14:22 15,2 C 16,7 C 12,8 C 58 % 1014,3 hPa 0,0 l/m 2 min 0 min 508 W/m 6,4 km/h (2 Bft) 100,00 %
30.05.2022 14:24 15,2 C 16,7 C 12,8 C 59 % 1014,3 hPa 0,0 l/m 2 min 0 min 549 W/m 6,4 km/h (2 Bft) 97,87 %
30.05.2022 14:26 15,3 C 17,2 C 12,8 C 59 % 1014,3 hPa 0,0 l/m 2 min 0 min 666 W/m 12,9 km/h (3 Bft) 95,74 %
30.05.2022 14:28 15,4 C 17,8 C 13,3 C 57 % 1014,3 hPa 0,0 l/m 2 min 0 min 694 W/m 12,9 km/h (3 Bft) 97,87 %
30.05.2022 14:30 15,4 C 18,3 C 12,8 C 57 % 1014,3 hPa 0,0 l/m 2 min 0 min 826 W/m 6,4 km/h (2 Bft) 95,74 %
30.05.2022 14:32 15,6 C 20,0 C 13,3 C 58 % 1014,2 hPa 0,0 l/m 2 min 0 min 830 W/m 6,4 km/h (2 Bft) 93,62 %
30.05.2022 14:34 15,9 C 21,1 C 13,9 C 57 % 1014,2 hPa 0,0 l/m 2 min 0 min 973 W/m 6,4 km/h (2 Bft) 93,48 %
30.05.2022 14:36 16,3 C 21,1 C 13,9 C 57 % 1014,2 hPa 0,0 l/m 2 min 0 min 845 W/m 9,7 km/h (2 Bft) 93,22 %
30.05.2022 14:38 16,5 C 20,6 C 13,9 C 56 % 1014,2 hPa 0,0 l/m 2 min 0 min 843 W/m 12,9 km/h (3 Bft) 91,43 %
30.05.2022 14:40 16,5 C 18,9 C 13,3 C 54 % 1014,2 hPa 0,0 l/m 2 min 0 min 694 W/m 16,1 km/h (3 Bft) 93,62 %
30.05.2022 14:42 16,4 C 18,3 C 13,3 C 54 % 1014,3 hPa 0,0 l/m 2 min 0 min 550 W/m 12,9 km/h (3 Bft) 93,62 %
30.05.2022 14:44 16,3 C 18,3 C 13,3 C 54 % 1014,2 hPa 0,0 l/m 2 min 0 min 547 W/m 9,7 km/h (2 Bft) 93,62 %
30.05.2022 14:46 16,3 C 17,8 C 13,3 C 53 % 1014,3 hPa 0,0 l/m 2 min 0 min 583 W/m 3,2 km/h (1 Bft) 95,65 %
30.05.2022 14:48 16,2 C 17,8 C 12,8 C 51 % 1014,2 hPa 0,0 l/m 2 min 0 min 650 W/m 6,4 km/h (2 Bft) 89,36 %
30.05.2022 14:50 16,1 C 17,8 C 12,8 C 51 % 1014,2 hPa 0,0 l/m 2 min 0 min 942 W/m 6,4 km/h (2 Bft) 91,49 %
30.05.2022 14:52 16,1 C 17,8 C 12,8 C 51 % 1014,3 hPa 0,0 l/m 2 min 0 min 727 W/m 6,4 km/h (2 Bft) 91,49 %
30.05.2022 14:54 16,2 C 18,9 C 12,8 C 50 % 1014,2 hPa 0,0 l/m 2 min 0 min 521 W/m 16,1 km/h (3 Bft) 93,62 %
30.05.2022 14:56 16,3 C 20,6 C 12,8 C 50 % 1014,2 hPa 0,0 l/m 2 min 0 min 828 W/m 6,4 km/h (2 Bft) 93,62 %
30.05.2022 14:58 16,4 C 20,6 C 12,8 C 50 % 1014,3 hPa 0,0 l/m 2 min 0 min 827 W/m 19,3 km/h (3 Bft) 93,48 %
30.05.2022 15:00 16,4 C 19,4 C 12,2 C 50 % 1014,2 hPa 0,0 l/m 2 min 0 min 1064 W/m 6,4 km/h (2 Bft) 93,62 %
30.05.2022 15:02 16,4 C 18,9 C 12,2 C 51 % 1014,2 hPa 0,0 l/m 0 min 0 min 309 W/m 3,2 km/h (1 Bft) 93,62 %
30.05.2022 15:04 16,5 C 18,3 C 12,2 C 52 % 1014,2 hPa 0,0 l/m 0 min 0 min 308 W/m 3,2 km/h (1 Bft) 93,62 %
30.05.2022 15:06 16,6 C 17,8 C 12,2 C 53 % 1014,2 hPa 0,0 l/m 0 min 0 min 311 W/m 6,4 km/h (2 Bft) 91,49 %
30.05.2022 15:08 16,4 C 17,2 C 12,2 C 52 % 1014,2 hPa 0,0 l/m 0 min 0 min 326 W/m 3,2 km/h (1 Bft) 97,87 %
30.05.2022 15:10 16,4 C 17,2 C 12,2 C 54 % 1014,3 hPa 0,0 l/m 0 min 0 min 330 W/m 3,2 km/h (1 Bft) 97,83 %
30.05.2022 15:12 16,3 C 16,7 C 12,8 C 55 % 1014,2 hPa 0,0 l/m 0 min 0 min 341 W/m 9,7 km/h (2 Bft) 97,87 %
30.05.2022 15:14 16,3 C 16,7 C 12,8 C 56 % 1014,3 hPa 0,0 l/m 0 min 0 min 351 W/m 9,7 km/h (2 Bft) 93,62 %
30.05.2022 15:16 16,2 C 16,7 C 12,8 C 56 % 1014,3 hPa 0,0 l/m 0 min 0 min 363 W/m 6,4 km/h (2 Bft) 95,74 %
30.05.2022 15:18 16,2 C 16,7 C 12,8 C 57 % 1014,3 hPa 0,0 l/m 0 min 0 min 344 W/m 9,7 km/h (2 Bft) 97,87 %
30.05.2022 15:20 16,0 C 16,1 C 12,8 C 57 % 1014,2 hPa 0,0 l/m 0 min 0 min 330 W/m 9,7 km/h (2 Bft) 97,87 %
30.05.2022 15:22 15,9 C 16,1 C 12,2 C 57 % 1014,3 hPa 0,0 l/m 0 min 0 min 318 W/m 6,4 km/h (2 Bft) 95,65 %
30.05.2022 15:24 15,8 C 15,6 C 12,2 C 57 % 1014,3 hPa 0,0 l/m 0 min 0 min 303 W/m 9,7 km/h (2 Bft) 95,74 %
30.05.2022 15:26 15,8 C 16,1 C 12,2 C 59 % 1014,3 hPa 0,0 l/m 0 min 0 min 291 W/m 9,7 km/h (2 Bft) 97,87 %
30.05.2022 15:28 15,7 C 15,6 C 12,2 C 58 % 1014,3 hPa 0,0 l/m 0 min 0 min 294 W/m 12,9 km/h (3 Bft) 97,87 %
30.05.2022 15:30 15,7 C 15,6 C 12,2 C 58 % 1014,3 hPa 0,0 l/m 0 min 0 min 300 W/m 6,4 km/h (2 Bft) 97,87 %
30.05.2022 15:32 15,6 C 16,1 C 12,2 C 58 % 1014,3 hPa 0,0 l/m 0 min 0 min 317 W/m 16,1 km/h (3 Bft) 97,87 %
30.05.2022 15:34 15,6 C 16,1 C 12,2 C 59 % 1014,3 hPa 0,0 l/m 2 min 0 min 389 W/m 3,2 km/h (1 Bft) 97,83 %
30.05.2022 15:36 15,6 C 16,1 C 12,2 C 58 % 1014,3 hPa 0,0 l/m 2 min 0 min 383 W/m 9,7 km/h (2 Bft) 100,00 %
30.05.2022 15:38 15,6 C 16,1 C 12,2 C 57 % 1014,3 hPa 0,0 l/m 2 min 0 min 400 W/m 6,4 km/h (2 Bft) 100,00 %
30.05.2022 15:40 15,5 C 16,1 C 12,2 C 58 % 1014,3 hPa 0,0 l/m 2 min 0 min 417 W/m 9,7 km/h (2 Bft) 100,00 %
30.05.2022 15:42 15,6 C 16,7 C 12,2 C 58 % 1014,3 hPa 0,0 l/m 2 min 0 min 478 W/m 6,4 km/h (2 Bft) 100,00 %
30.05.2022 15:44 15,6 C 16,7 C 12,2 C 57 % 1014,2 hPa 0,0 l/m 2 min 0 min 504 W/m 6,4 km/h (2 Bft) 100,00 %
30.05.2022 15:46 15,6 C 17,2 C 12,8 C 57 % 1014,2 hPa 0,0 l/m 2 min 0 min 498 W/m 3,2 km/h (1 Bft) 100,00 %
30.05.2022 15:48 15,7 C 18,3 C 12,8 C 57 % 1014,2 hPa 0,0 l/m 2 min 0 min 564 W/m 9,7 km/h (2 Bft) 100,00 %
30.05.2022 15:50 15,8 C 18,3 C 12,8 C 57 % 1014,2 hPa 0,0 l/m 2 min 0 min 564 W/m 9,7 km/h (2 Bft) 100,00 %
30.05.2022 15:52 15,9 C 18,3 C 12,8 C 57 % 1014,2 hPa 0,0 l/m 2 min 0 min 571 W/m 6,4 km/h (2 Bft) 100,00 %
30.05.2022 15:54 15,9 C 17,8 C 12,8 C 57 % 1014,1 hPa 0,0 l/m 2 min 0 min 458 W/m 6,4 km/h (2 Bft) 100,00 %
30.05.2022 15:56 16,0 C 17,2 C 12,8 C 57 % 1014,2 hPa 0,0 l/m 2 min 0 min 369 W/m 6,4 km/h (2 Bft) 100,00 %
30.05.2022 15:58 16,0 C 17,2 C 12,8 C 57 % 1014,2 hPa 0,0 l/m 2 min 0 min 367 W/m 6,4 km/h (2 Bft) 100,00 %
30.05.2022 16:00 16,0 C 17,2 C 12,8 C 58 % 1014,1 hPa 0,0 l/m 2 min 0 min 368 W/m 6,4 km/h (2 Bft) 100,00 %
30.05.2022 16:02 16,0 C 17,2 C 12,8 C 57 % 1014,2 hPa 0,0 l/m 2 min 0 min 387 W/m 9,7 km/h (2 Bft) 97,87 %
30.05.2022 16:04 16,0 C 17,2 C 12,8 C 57 % 1014,2 hPa 0,0 l/m 2 min 0 min 371 W/m 9,7 km/h (2 Bft) 100,00 %
30.05.2022 16:06 15,9 C 17,2 C 12,2 C 55 % 1014,2 hPa 0,0 l/m 2 min 0 min 399 W/m 3,2 km/h (1 Bft) 100,00 %
30.05.2022 16:08 15,8 C 17,2 C 12,2 C 56 % 1014,1 hPa 0,0 l/m 2 min 0 min 403 W/m 12,9 km/h (3 Bft) 97,87 %
30.05.2022 16:10 15,8 C 17,8 C 12,2 C 57 % 1014,1 hPa 0,0 l/m 2 min 0 min 422 W/m 6,4 km/h (2 Bft) 100,00 %
30.05.2022 16:12 15,8 C 17,2 C 12,2 C 56 % 1014,1 hPa 0,0 l/m 2 min 0 min 468 W/m 6,4 km/h (2 Bft) 97,87 %
30.05.2022 16:14 15,9 C 18,9 C 12,8 C 56 % 1014,1 hPa 0,0 l/m 2 min 0 min 494 W/m 12,9 km/h (3 Bft) 97,87 %
30.05.2022 16:16 16,0 C 18,9 C 12,8 C 56 % 1014,1 hPa 0,0 l/m 2 min 0 min 553 W/m 9,7 km/h (2 Bft) 95,74 %
30.05.2022 16:18 16,1 C 18,9 C 12,8 C 56 % 1014,1 hPa 0,0 l/m 2 min 0 min 560 W/m 6,4 km/h (2 Bft) 100,00 %
30.05.2022 16:20 16,2 C 18,9 C 12,8 C 56 % 1014,0 hPa 0,0 l/m 2 min 0 min 485 W/m 6,4 km/h (2 Bft) 100,00 %
30.05.2022 16:22 16,3 C 18,9 C 12,8 C 55 % 1014,0 hPa 0,0 l/m 2 min 0 min 493 W/m 6,4 km/h (2 Bft) 100,00 %
30.05.2022 16:24 16,3 C 19,4 C 12,8 C 53 % 1014,0 hPa 0,0 l/m 2 min 0 min 578 W/m 6,4 km/h (2 Bft) 100,00 %
30.05.2022 16:26 16,4 C 21,1 C 13,3 C 54 % 1014,0 hPa 0,0 l/m 2 min 0 min 578 W/m 3,2 km/h (1 Bft) 100,00 %
30.05.2022 16:28 16,5 C 20,6 C 13,3 C 54 % 1014,0 hPa 0,0 l/m 2 min 0 min 805 W/m 9,7 km/h (2 Bft) 100,00 %
30.05.2022 16:30 16,6 C 20,6 C 13,3 C 54 % 1014,0 hPa 0,0 l/m 2 min 0 min 433 W/m 9,7 km/h (2 Bft) 100,00 %
30.05.2022 16:32 16,7 C 19,4 C 12,8 C 54 % 1014,0 hPa 0,0 l/m 0 min 0 min 317 W/m 6,4 km/h (2 Bft) 97,87 %
30.05.2022 16:34 16,6 C 18,3 C 12,8 C 53 % 1014,0 hPa 0,0 l/m 0 min 0 min 274 W/m 12,9 km/h (3 Bft) 100,00 %
30.05.2022 16:36 16,6 C 17,8 C 12,8 C 53 % 1014,0 hPa 0,0 l/m 0 min 0 min 264 W/m 9,7 km/h (2 Bft) 100,00 %
30.05.2022 16:38 16,5 C 16,7 C 12,2 C 52 % 1014,0 hPa 0,0 l/m 0 min 0 min 258 W/m 6,4 km/h (2 Bft) 100,00 %
30.05.2022 16:40 16,3 C 16,7 C 12,2 C 52 % 1014,0 hPa 0,0 l/m 0 min 0 min 270 W/m 6,4 km/h (2 Bft) 100,00 %
30.05.2022 16:42 16,2 C 16,7 C 12,8 C 55 % 1014,0 hPa 0,0 l/m 0 min 0 min 299 W/m 6,4 km/h (2 Bft) 93,48 %
30.05.2022 16:44 16,2 C 17,8 C 12,8 C 54 % 1014,0 hPa 0,0 l/m 2 min 0 min 354 W/m 6,4 km/h (2 Bft) 100,00 %
30.05.2022 16:46 16,3 C 18,9 C 12,8 C 55 % 1014,0 hPa 0,0 l/m 2 min 0 min 863 W/m 6,4 km/h (2 Bft) 100,00 %
30.05.2022 16:48 16,3 C 18,9 C 12,8 C 54 % 1014,0 hPa 0,0 l/m 2 min 0 min 471 W/m 6,4 km/h (2 Bft) 97,87 %
30.05.2022 16:50 16,4 C 18,3 C 12,8 C 54 % 1014,0 hPa 0,0 l/m 2 min 0 min 343 W/m 6,4 km/h (2 Bft) 97,87 %
30.05.2022 16:52 16,4 C 17,8 C 12,8 C 54 % 1014,1 hPa 0,0 l/m 2 min 0 min 341 W/m 6,4 km/h (2 Bft) 95,74 %
30.05.2022 16:54 16,4 C 17,2 C 12,8 C 55 % 1014,1 hPa 0,0 l/m 2 min 0 min 336 W/m 9,7 km/h (2 Bft) 95,65 %
30.05.2022 16:56 16,5 C 17,2 C 12,8 C 55 % 1014,1 hPa 0,0 l/m 2 min 0 min 330 W/m 6,4 km/h (2 Bft) 95,74 %
30.05.2022 16:58 16,6 C 17,2 C 12,8 C 55 % 1014,1 hPa 0,0 l/m 2 min 0 min 330 W/m 6,4 km/h (2 Bft) 95,74 %
30.05.2022 17:00 16,6 C 17,8 C 12,8 C 54 % 1014,1 hPa 0,0 l/m 2 min 0 min 332 W/m 6,4 km/h (2 Bft) 95,74 %
30.05.2022 17:02 16,6 C 17,8 C 12,8 C 54 % 1014,1 hPa 0,0 l/m 2 min 0 min 320 W/m 9,7 km/h (2 Bft) 97,87 %
30.05.2022 17:04 16,6 C 17,8 C 12,8 C 54 % 1014,1 hPa 0,0 l/m 0 min 0 min 284 W/m 6,4 km/h (2 Bft) 95,74 %
30.05.2022 17:06 16,6 C 17,8 C 12,8 C 54 % 1014,1 hPa 0,0 l/m 0 min 0 min 261 W/m 3,2 km/h (1 Bft) 93,48 %
30.05.2022 17:08 16,6 C 17,2 C 12,8 C 54 % 1014,1 hPa 0,0 l/m 0 min 0 min 273 W/m 3,2 km/h (1 Bft) 95,74 %
30.05.2022 17:10 16,6 C 17,2 C 12,8 C 55 % 1014,2 hPa 0,0 l/m 0 min 0 min 296 W/m 12,9 km/h (3 Bft) 95,74 %
30.05.2022 17:12 16,4 C 17,2 C 12,8 C 56 % 1014,1 hPa 0,0 l/m 0 min 0 min 300 W/m 3,2 km/h (1 Bft) 93,62 %
30.05.2022 17:14 16,4 C 17,2 C 12,8 C 55 % 1014,1 hPa 0,0 l/m 2 min 0 min 311 W/m 6,4 km/h (2 Bft) 95,74 %
30.05.2022 17:16 16,4 C 16,7 C 12,8 C 54 % 1014,1 hPa 0,0 l/m 2 min 0 min 315 W/m 6,4 km/h (2 Bft) 93,62 %
30.05.2022 17:18 16,2 C 16,7 C 12,2 C 54 % 1014,1 hPa 0,0 l/m 2 min 0 min 304 W/m 3,2 km/h (1 Bft) 95,65 %
30.05.2022 17:20 16,2 C 16,7 C 12,2 C 55 % 1014,1 hPa 0,0 l/m 2 min 0 min 295 W/m 6,4 km/h (2 Bft) 95,74 %
30.05.2022 17:22 16,1 C 16,7 C 12,2 C 53 % 1014,1 hPa 0,0 l/m 2 min 0 min 300 W/m 6,4 km/h (2 Bft) 93,62 %
30.05.2022 17:24 16,1 C 17,2 C 12,2 C 54 % 1014,2 hPa 0,0 l/m 2 min 0 min 322 W/m 6,4 km/h (2 Bft) 91,49 %
30.05.2022 17:26 16,1 C 16,7 C 12,2 C 53 % 1014,1 hPa 0,0 l/m 2 min 0 min 357 W/m 3,2 km/h (1 Bft) 97,87 %
30.05.2022 17:28 15,9 C 17,2 C 12,2 C 53 % 1014,1 hPa 0,0 l/m 2 min 0 min 344 W/m 6,4 km/h (2 Bft) 97,87 %
30.05.2022 17:30 15,9 C 17,2 C 12,2 C 54 % 1014,1 hPa 0,0 l/m 2 min 0 min 314 W/m 3,2 km/h (1 Bft) 97,83 %
30.05.2022 17:32 15,9 C 17,2 C 12,2 C 54 % 1014,1 hPa 0,0 l/m 2 min 0 min 367 W/m 6,4 km/h (2 Bft) 97,87 %
30.05.2022 17:34 16,0 C 18,3 C 12,8 C 55 % 1014,1 hPa 0,0 l/m 2 min 0 min 404 W/m 6,4 km/h (2 Bft) 97,87 %
30.05.2022 17:36 16,1 C 18,3 C 12,8 C 54 % 1014,1 hPa 0,0 l/m 2 min 0 min 386 W/m 6,4 km/h (2 Bft) 100,00 %
30.05.2022 17:38 16,2 C 18,9 C 12,8 C 55 % 1014,0 hPa 0,0 l/m 2 min 0 min 357 W/m 9,7 km/h (2 Bft) 97,87 %
30.05.2022 17:40 16,3 C 19,4 C 12,8 C 52 % 1014,0 hPa 0,0 l/m 2 min 0 min 432 W/m 6,4 km/h (2 Bft) 100,00 %
30.05.2022 17:42 16,4 C 20,0 C 12,8 C 53 % 1014,0 hPa 0,0 l/m 2 min 0 min 442 W/m 3,2 km/h (1 Bft) 97,83 %
30.05.2022 17:44 16,6 C 20,6 C 13,3 C 54 % 1013,9 hPa 0,0 l/m 2 min 0 min 503 W/m 9,7 km/h (2 Bft) 100,00 %
30.05.2022 17:46 16,7 C 21,1 C 13,3 C 52 % 1014,0 hPa 0,0 l/m 2 min 0 min 477 W/m 6,4 km/h (2 Bft) 97,87 %
30.05.2022 17:48 16,8 C 22,2 C 13,3 C 52 % 1013,9 hPa 0,0 l/m 2 min 0 min 591 W/m 9,7 km/h (2 Bft) 100,00 %
30.05.2022 17:50 16,9 C 21,7 C 13,3 C 52 % 1013,9 hPa 0,0 l/m 2 min 0 min 568 W/m 6,4 km/h (2 Bft) 97,87 %
30.05.2022 17:52 16,9 C 20,0 C 13,3 C 51 % 1013,9 hPa 0,0 l/m 0 min 0 min 223 W/m 9,7 km/h (2 Bft) 100,00 %
30.05.2022 17:54 16,9 C 19,4 C 13,3 C 52 % 1013,9 hPa 0,0 l/m 0 min 0 min 230 W/m 6,4 km/h (2 Bft) 100,00 %
30.05.2022 17:56 16,9 C 18,9 C 13,3 C 51 % 1013,9 hPa 0,0 l/m 2 min 0 min 267 W/m 9,7 km/h (2 Bft) 100,00 %
30.05.2022 17:58 16,9 C 18,9 C 12,8 C 51 % 1013,9 hPa 0,0 l/m 2 min 0 min 303 W/m 3,2 km/h (1 Bft) 100,00 %
30.05.2022 18:00 17,0 C 19,4 C 13,3 C 51 % 1013,9 hPa 0,0 l/m 2 min 0 min 370 W/m 3,2 km/h (1 Bft) 97,87 %
30.05.2022 18:02 16,9 C 20,0 C 12,8 C 51 % 1013,9 hPa 0,0 l/m 2 min 0 min 468 W/m 3,2 km/h (1 Bft) 100,00 %
30.05.2022 18:04 16,9 C 21,1 C 12,8 C 52 % 1013,9 hPa 0,0 l/m 2 min 0 min 638 W/m 3,2 km/h (1 Bft) 100,00 %
30.05.2022 18:08 17,1 C 20,6 C 13,3 C 53 % 1013,9 hPa 0,0 l/m 4 min 0 min 478 W/m 9,7 km/h (2 Bft) 96,84 %
30.05.2022 18:10 17,1 C 19,4 C 13,3 C 51 % 1013,9 hPa 0,0 l/m 2 min 0 min 277 W/m 6,4 km/h (2 Bft) 97,87 %
30.05.2022 18:12 17,1 C 18,9 C 13,3 C 52 % 1013,9 hPa 0,0 l/m 2 min 0 min 242 W/m 9,7 km/h (2 Bft) 95,74 %
30.05.2022 18:14 17,1 C 17,8 C 13,3 C 51 % 1013,9 hPa 0,0 l/m 0 min 0 min 229 W/m 9,7 km/h (2 Bft) 97,87 %
30.05.2022 18:16 17,0 C 17,8 C 13,3 C 51 % 1013,9 hPa 0,0 l/m 0 min 0 min 221 W/m 6,4 km/h (2 Bft) 95,74 %
30.05.2022 18:18 16,9 C 17,2 C 12,8 C 50 % 1013,8 hPa 0,0 l/m 0 min 0 min 223 W/m 3,2 km/h (1 Bft) 97,87 %
30.05.2022 18:20 16,9 C 17,2 C 12,8 C 50 % 1013,8 hPa 0,0 l/m 2 min 0 min 240 W/m 3,2 km/h (1 Bft) 97,83 %
30.05.2022 18:22 16,8 C 17,8 C 12,8 C 51 % 1013,7 hPa 0,0 l/m 2 min 0 min 257 W/m 6,4 km/h (2 Bft) 95,74 %
30.05.2022 18:24 16,8 C 17,8 C 12,8 C 51 % 1013,7 hPa 0,0 l/m 2 min 0 min 265 W/m 3,2 km/h (1 Bft) 97,87 %
30.05.2022 18:26 16,8 C 19,4 C 12,8 C 52 % 1013,8 hPa 0,0 l/m 2 min 0 min 313 W/m 6,4 km/h (2 Bft) 97,87 %
30.05.2022 18:28 16,8 C 20,0 C 12,8 C 51 % 1013,7 hPa 0,0 l/m 2 min 0 min 313 W/m 3,2 km/h (1 Bft) 97,87 %
30.05.2022 18:30 16,9 C 21,1 C 12,8 C 53 % 1013,8 hPa 0,0 l/m 2 min 0 min 383 W/m 3,2 km/h (1 Bft) 97,92 %
30.05.2022 18:32 16,9 C 22,2 C 13,3 C 52 % 1013,8 hPa 0,0 l/m 2 min 0 min 505 W/m 6,4 km/h (2 Bft) 97,87 %
30.05.2022 18:34 17,1 C 22,2 C 13,3 C 51 % 1013,8 hPa 0,0 l/m 2 min 0 min 459 W/m 6,4 km/h (2 Bft) 97,87 %
30.05.2022 18:36 17,1 C 21,7 C 13,3 C 51 % 1013,8 hPa 0,0 l/m 2 min 0 min 424 W/m 3,2 km/h (1 Bft) 95,74 %
30.05.2022 18:38 17,1 C 22,2 C 13,3 C 51 % 1013,9 hPa 0,0 l/m 2 min 0 min 467 W/m 6,4 km/h (2 Bft) 97,87 %
30.05.2022 18:40 17,2 C 22,2 C 13,9 C 51 % 1013,7 hPa 0,0 l/m 2 min 0 min 410 W/m 3,2 km/h (1 Bft) 97,83 %
30.05.2022 18:42 17,2 C 22,2 C 13,9 C 51 % 1013,8 hPa 0,0 l/m 2 min 0 min 416 W/m 6,4 km/h (2 Bft) 97,87 %
30.05.2022 18:44 17,3 C 22,8 C 13,9 C 50 % 1013,8 hPa 0,0 l/m 2 min 0 min 373 W/m 9,7 km/h (2 Bft) 97,87 %
30.05.2022 18:46 17,3 C 22,8 C 14,4 C 49 % 1013,8 hPa 0,0 l/m 2 min 0 min 368 W/m 6,4 km/h (2 Bft) 97,87 %
30.05.2022 18:48 17,4 C 22,2 C 13,9 C 49 % 1013,8 hPa 0,0 l/m 2 min 0 min 324 W/m 6,4 km/h (2 Bft) 95,74 %
30.05.2022 18:50 17,5 C 22,2 C 13,9 C 48 % 1013,8 hPa 0,0 l/m 2 min 0 min 366 W/m 3,2 km/h (1 Bft) 97,87 %
30.05.2022 18:52 17,6 C 22,8 C 13,9 C 48 % 1013,8 hPa 0,0 l/m 2 min 0 min 429 W/m 6,4 km/h (2 Bft) 95,65 %
30.05.2022 18:54 17,6 C 22,8 C 13,9 C 48 % 1013,7 hPa 0,0 l/m 2 min 0 min 386 W/m 6,4 km/h (2 Bft) 95,74 %
30.05.2022 18:56 17,6 C 23,3 C 13,9 C 48 % 1013,7 hPa 0,0 l/m 2 min 0 min 397 W/m 9,7 km/h (2 Bft) 97,87 %
30.05.2022 18:58 17,6 C 21,7 C 13,9 C 47 % 1013,7 hPa 0,0 l/m 2 min 0 min 372 W/m 3,2 km/h (1 Bft) 100,00 %
30.05.2022 19:00 17,6 C 21,1 C 13,3 C 48 % 1013,7 hPa 0,0 l/m 2 min 0 min 258 W/m 6,4 km/h (2 Bft) 100,00 %
30.05.2022 19:02 17,5 C 20,0 C 13,3 C 47 % 1013,7 hPa 0,0 l/m 2 min 0 min 216 W/m 6,4 km/h (2 Bft) 100,00 %
30.05.2022 19:04 17,4 C 19,4 C 13,3 C 49 % 1013,7 hPa 0,0 l/m 0 min 0 min 165 W/m 6,4 km/h (2 Bft) 97,83 %
30.05.2022 19:06 17,4 C 18,9 C 13,3 C 49 % 1013,7 hPa 0,0 l/m 2 min 0 min 178 W/m 3,2 km/h (1 Bft) 100,00 %
30.05.2022 19:08 17,3 C 18,3 C 12,8 C 49 % 1013,7 hPa 0,0 l/m 2 min 0 min 195 W/m 3,2 km/h (1 Bft) 100,00 %
30.05.2022 19:10 17,3 C 17,8 C 12,8 C 49 % 1013,7 hPa 0,0 l/m 2 min 0 min 209 W/m 3,2 km/h (1 Bft) 95,74 %
30.05.2022 19:12 17,2 C 18,3 C 13,3 C 50 % 1013,7 hPa 0,0 l/m 2 min 0 min 219 W/m 3,2 km/h (1 Bft) 97,87 %
30.05.2022 19:14 17,2 C 17,8 C 13,3 C 49 % 1013,7 hPa 0,0 l/m 2 min 0 min 227 W/m 3,2 km/h (1 Bft) 97,87 %
30.05.2022 19:16 17,2 C 17,2 C 12,8 C 48 % 1013,7 hPa 0,0 l/m 2 min 0 min 287 W/m 3,2 km/h (1 Bft) 95,65 %
30.05.2022 19:18 17,1 C 17,2 C 12,8 C 48 % 1013,7 hPa 0,0 l/m 2 min 0 min 165 W/m 6,4 km/h (2 Bft) 95,74 %
30.05.2022 19:20 17,1 C 16,7 C 12,8 C 48 % 1013,7 hPa 0,0 l/m 0 min 0 min 150 W/m 6,4 km/h (2 Bft) 95,74 %
30.05.2022 19:22 16,9 C 16,1 C 12,8 C 48 % 1013,8 hPa 0,0 l/m 0 min 0 min 146 W/m 3,2 km/h (1 Bft) 95,74 %
30.05.2022 19:24 16,7 C 16,1 C 12,2 C 49 % 1013,8 hPa 0,0 l/m 2 min 0 min 217 W/m 3,2 km/h (1 Bft) 93,62 %
30.05.2022 19:26 16,7 C 16,7 C 12,8 C 51 % 1013,8 hPa 0,0 l/m 2 min 0 min 171 W/m 6,4 km/h (2 Bft) 95,74 %
30.05.2022 19:28 16,7 C 16,7 C 12,2 C 51 % 1013,8 hPa 0,0 l/m 2 min 0 min 161 W/m 6,4 km/h (2 Bft) 93,48 %
30.05.2022 19:30 16,6 C 16,7 C 12,2 C 51 % 1013,8 hPa 0,0 l/m 2 min 0 min 153 W/m 6,4 km/h (2 Bft) 95,74 %
30.05.2022 19:32 16,6 C 16,7 C 12,2 C 51 % 1013,7 hPa 0,0 l/m 2 min 0 min 151 W/m 3,2 km/h (1 Bft) 95,74 %
30.05.2022 19:34 16,6 C 16,7 C 12,2 C 51 % 1013,8 hPa 0,0 l/m 2 min 0 min 166 W/m 6,4 km/h (2 Bft) 95,74 %
30.05.2022 19:36 16,6 C 16,7 C 12,2 C 52 % 1013,8 hPa 0,0 l/m 2 min 0 min 219 W/m 3,2 km/h (1 Bft) 95,74 %
30.05.2022 19:38 16,6 C 16,7 C 12,2 C 52 % 1013,8 hPa 0,0 l/m 2 min 0 min 216 W/m 3,2 km/h (1 Bft) 95,74 %
30.05.2022 19:40 16,6 C 16,7 C 12,2 C 51 % 1013,8 hPa 0,0 l/m 2 min 0 min 191 W/m 6,4 km/h (2 Bft) 95,65 %
30.05.2022 19:42 16,6 C 16,7 C 12,2 C 51 % 1013,8 hPa 0,0 l/m 2 min 0 min 152 W/m 3,2 km/h (1 Bft) 93,62 %
30.05.2022 19:44 16,6 C 16,1 C 12,2 C 51 % 1013,7 hPa 0,0 l/m 2 min 0 min 127 W/m 6,4 km/h (2 Bft) 95,74 %
30.05.2022 19:46 16,6 C 16,1 C 12,2 C 51 % 1013,8 hPa 0,0 l/m 0 min 0 min 111 W/m 6,4 km/h (2 Bft) 95,74 %
30.05.2022 19:48 16,6 C 16,1 C 12,2 C 51 % 1013,8 hPa 0,0 l/m 0 min 0 min 98 W/m 3,2 km/h (1 Bft) 95,74 %
30.05.2022 19:50 16,6 C 16,1 C 12,2 C 51 % 1013,8 hPa 0,0 l/m 0 min 0 min 95 W/m 3,2 km/h (1 Bft) 97,87 %
30.05.2022 19:52 16,6 C 16,1 C 12,2 C 51 % 1013,8 hPa 0,0 l/m 0 min 0 min 94 W/m 6,4 km/h (2 Bft) 97,83 %
30.05.2022 19:54 16,6 C 16,1 C 12,2 C 50 % 1013,8 hPa 0,0 l/m 0 min 0 min 93 W/m 3,2 km/h (1 Bft) 95,74 %
30.05.2022 19:56 16,6 C 16,1 C 12,2 C 50 % 1013,8 hPa 0,0 l/m 0 min 0 min 96 W/m 3,2 km/h (1 Bft) 97,87 %
30.05.2022 19:58 16,6 C 16,1 C 12,2 C 51 % 1013,9 hPa 0,0 l/m 0 min 0 min 98 W/m 0,0 km/h (0 Bft) 95,74 %
30.05.2022 20:00 16,6 C 16,1 C 12,2 C 52 % 1013,8 hPa 0,0 l/m 0 min 0 min 98 W/m 0,0 km/h (0 Bft) 97,87 %
30.05.2022 20:02 16,5 C 15,6 C 12,2 C 52 % 1013,9 hPa 0,0 l/m 0 min 0 min 98 W/m 3,2 km/h (1 Bft) 100,00 %
30.05.2022 20:04 16,5 C 15,6 C 12,2 C 53 % 1013,9 hPa 0,0 l/m 0 min 0 min 96 W/m 0,0 km/h (0 Bft) 100,00 %
30.05.2022 20:06 16,4 C 15,6 C 11,7 C 52 % 1013,9 hPa 0,0 l/m 0 min 0 min 90 W/m 3,2 km/h (1 Bft) 100,00 %
30.05.2022 20:08 16,4 C 15,6 C 11,7 C 52 % 1013,9 hPa 0,0 l/m 0 min 0 min 86 W/m 3,2 km/h (1 Bft) 100,00 %
30.05.2022 20:10 16,3 C 15,6 C 11,7 C 51 % 1013,9 hPa 0,0 l/m 0 min 0 min 82 W/m 3,2 km/h (1 Bft) 97,87 %
30.05.2022 20:12 16,2 C 15,6 C 11,7 C 50 % 1013,9 hPa 0,0 l/m 0 min 0 min 81 W/m 3,2 km/h (1 Bft) 100,00 %
30.05.2022 20:14 16,1 C 15,6 C 11,7 C 51 % 1013,9 hPa 0,0 l/m 0 min 0 min 81 W/m 0,0 km/h (0 Bft) 100,00 %
30.05.2022 20:16 16,1 C 15,6 C 11,7 C 51 % 1013,9 hPa 0,0 l/m 0 min 0 min 81 W/m 3,2 km/h (1 Bft) 100,00 %
30.05.2022 20:18 16,1 C 15,6 C 11,7 C 53 % 1013,9 hPa 0,0 l/m 0 min 0 min 80 W/m 3,2 km/h (1 Bft) 100,00 %
30.05.2022 20:20 16,1 C 15,6 C 11,7 C 53 % 1013,9 hPa 0,0 l/m 0 min 0 min 77 W/m 6,4 km/h (2 Bft) 100,00 %
30.05.2022 20:22 16,1 C 15,6 C 11,7 C 55 % 1013,9 hPa 0,0 l/m 0 min 0 min 73 W/m 3,2 km/h (1 Bft) 100,00 %
30.05.2022 20:24 16,0 C 15,6 C 11,7 C 57 % 1013,9 hPa 0,0 l/m 0 min 0 min 67 W/m 6,4 km/h (2 Bft) 100,00 %
30.05.2022 20:26 15,9 C 15,6 C 11,7 C 56 % 1013,9 hPa 0,0 l/m 0 min 0 min 60 W/m 6,4 km/h (2 Bft) 97,87 %
30.05.2022 20:28 15,9 C 15,6 C 11,7 C 57 % 1013,9 hPa 0,0 l/m 0 min 0 min 54 W/m 6,4 km/h (2 Bft) 100,00 %
30.05.2022 20:30 15,8 C 15,6 C 11,1 C 57 % 1014,0 hPa 0,0 l/m 0 min 0 min 51 W/m 0,0 km/h (0 Bft) 100,00 %
30.05.2022 20:32 15,8 C 15,6 C 11,1 C 57 % 1014,0 hPa 0,0 l/m 0 min 0 min 49 W/m 0,0 km/h (0 Bft) 100,00 %
30.05.2022 20:34 15,7 C 15,6 C 11,1 C 59 % 1014,0 hPa 0,0 l/m 0 min 0 min 49 W/m 3,2 km/h (1 Bft) 100,00 %
30.05.2022 20:36 15,7 C 15,6 C 11,1 C 58 % 1014,0 hPa 0,0 l/m 0 min 0 min 49 W/m 3,2 km/h (1 Bft) 97,87 %
30.05.2022 20:38 15,7 C 15,6 C 11,1 C 59 % 1014,0 hPa 0,0 l/m 0 min 0 min 49 W/m 3,2 km/h (1 Bft) 100,00 %
30.05.2022 20:40 15,6 C 15,0 C 11,1 C 58 % 1014,1 hPa 0,0 l/m 0 min 0 min 48 W/m 3,2 km/h (1 Bft) 100,00 %
30.05.2022 20:42 15,6 C 15,0 C 11,1 C 59 % 1014,0 hPa 0,0 l/m 0 min 0 min 46 W/m 3,2 km/h (1 Bft) 100,00 %
30.05.2022 20:44 15,6 C 15,0 C 11,1 C 59 % 1014,0 hPa 0,0 l/m 0 min 0 min 43 W/m 3,2 km/h (1 Bft) 100,00 %
30.05.2022 20:46 15,5 C 15,0 C 11,1 C 59 % 1014,0 hPa 0,0 l/m 0 min 0 min 40 W/m 0,0 km/h (0 Bft) 97,87 %
30.05.2022 20:48 15,5 C 15,0 C 10,6 C 60 % 1014,0 hPa 0,0 l/m 0 min 0 min 38 W/m 0,0 km/h (0 Bft) 100,00 %
30.05.2022 20:50 15,5 C 15,0 C 10,6 C 61 % 1014,0 hPa 0,0 l/m 0 min 0 min 35 W/m 3,2 km/h (1 Bft) 97,87 %
30.05.2022 20:52 15,4 C 15,0 C 10,6 C 60 % 1014,0 hPa 0,0 l/m 0 min 0 min 33 W/m 3,2 km/h (1 Bft) 97,83 %
30.05.2022 20:54 15,4 C 15,0 C 10,6 C 60 % 1014,0 hPa 0,0 l/m 0 min 0 min 32 W/m 6,4 km/h (2 Bft) 97,87 %
30.05.2022 20:56 15,3 C 15,0 C 10,6 C 61 % 1014,0 hPa 0,0 l/m 0 min 0 min 30 W/m 3,2 km/h (1 Bft) 100,00 %
30.05.2022 20:58 15,2 C 14,4 C 10,6 C 61 % 1014,0 hPa 0,0 l/m 0 min 0 min 28 W/m 6,4 km/h (2 Bft) 95,74 %
30.05.2022 21:00 15,2 C 14,4 C 10,6 C 62 % 1014,0 hPa 0,0 l/m 0 min 0 min 26 W/m 3,2 km/h (1 Bft) 95,74 %
30.05.2022 21:02 15,1 C 14,4 C 10,0 C 62 % 1014,0 hPa 0,0 l/m 0 min 0 min 24 W/m 3,2 km/h (1 Bft) 97,83 %
30.05.2022 21:04 15,1 C 14,4 C 10,0 C 61 % 1013,9 hPa 0,0 l/m 0 min 0 min 22 W/m 3,2 km/h (1 Bft) 97,87 %
30.05.2022 21:06 15,0 C 13,9 C 10,0 C 62 % 1014,0 hPa 0,0 l/m 0 min 0 min 21 W/m 3,2 km/h (1 Bft) 93,62 %
30.05.2022 21:08 14,9 C 13,9 C 10,0 C 62 % 1014,0 hPa 0,0 l/m 0 min 0 min 19 W/m 3,2 km/h (1 Bft) 97,87 %
30.05.2022 21:10 14,9 C 13,9 C 10,0 C 63 % 1014,0 hPa 0,0 l/m 0 min 0 min 18 W/m 3,2 km/h (1 Bft) 97,62 %
30.05.2022 21:12 14,8 C 13,9 C 10,0 C 63 % 1014,0 hPa 0,0 l/m 0 min 0 min 16 W/m 3,2 km/h (1 Bft) 95,74 %
30.05.2022 21:14 14,7 C 13,9 C 10,0 C 64 % 1014,0 hPa 0,0 l/m 0 min 0 min 16 W/m 3,2 km/h (1 Bft) 95,74 %
30.05.2022 21:16 14,7 C 13,9 C 10,0 C 65 % 1014,0 hPa 0,0 l/m 0 min 0 min 14 W/m 0,0 km/h (0 Bft) 93,62 %
30.05.2022 21:18 14,6 C 13,9 C 10,0 C 64 % 1014,0 hPa 0,0 l/m 0 min 0 min 13 W/m 3,2 km/h (1 Bft) 95,74 %
30.05.2022 21:20 14,6 C 13,9 C 10,0 C 65 % 1014,0 hPa 0,0 l/m 0 min 0 min 12 W/m 0,0 km/h (0 Bft) 95,65 %
30.05.2022 21:22 14,6 C 13,9 C 9,4 C 65 % 1014,0 hPa 0,0 l/m 0 min 0 min 11 W/m 3,2 km/h (1 Bft) 95,74 %
30.05.2022 21:24 14,5 C 13,9 C 9,4 C 66 % 1014,0 hPa 0,0 l/m 0 min 0 min 9 W/m 0,0 km/h (0 Bft) 95,74 %
30.05.2022 21:26 14,5 C 13,3 C 9,4 C 66 % 1014,1 hPa 0,0 l/m 0 min 0 min 8 W/m 3,2 km/h (1 Bft) 93,62 %
30.05.2022 21:28 14,4 C 13,3 C 9,4 C 66 % 1014,1 hPa 0,0 l/m 0 min 0 min 7 W/m 3,2 km/h (1 Bft) 95,74 %
30.05.2022 21:30 14,4 C 13,3 C 9,4 C 66 % 1014,0 hPa 0,0 l/m 0 min 0 min 6 W/m 0,0 km/h (0 Bft) 93,62 %
30.05.2022 21:32 14,3 C 13,3 C 9,4 C 66 % 1014,1 hPa 0,0 l/m 0 min 0 min 5 W/m 3,2 km/h (1 Bft) 95,65 %
30.05.2022 21:34 14,3 C 13,3 C 9,4 C 67 % 1014,1 hPa 0,0 l/m 0 min 0 min 2 W/m 0,0 km/h (0 Bft) 95,74 %
30.05.2022 21:36 14,3 C 12,8 C 9,4 C 67 % 1014,1 hPa 0,0 l/m 0 min 0 min 0 W/m 3,2 km/h (1 Bft) 91,53 %
30.05.2022 21:38 14,3 C 12,8 C 9,4 C 67 % 1014,1 hPa 0,0 l/m 0 min 0 min 0 W/m 0,0 km/h (0 Bft) 97,14 %
30.05.2022 21:40 14,2 C 12,8 C 9,4 C 67 % 1014,1 hPa 0,0 l/m 0 min 0 min 0 W/m 0,0 km/h (0 Bft) 97,87 %
30.05.2022 21:42 14,1 C 12,8 C 9,4 C 67 % 1014,1 hPa 0,0 l/m 0 min 0 min 0 W/m 0,0 km/h (0 Bft) 100,00 %
30.05.2022 21:44 14,1 C 12,8 C 8,9 C 67 % 1014,2 hPa 0,0 l/m 0 min 0 min 0 W/m 3,2 km/h (1 Bft) 100,00 %
30.05.2022 21:46 14,1 C 12,8 C 8,9 C 67 % 1014,2 hPa 0,0 l/m 0 min 0 min 0 W/m 3,2 km/h (1 Bft) 100,00 %
30.05.2022 21:48 14,0 C 12,8 C 8,9 C 67 % 1014,2 hPa 0,0 l/m 0 min 0 min 0 W/m 0,0 km/h (0 Bft) 97,87 %
30.05.2022 21:50 13,9 C 12,8 C 8,9 C 67 % 1014,2 hPa 0,0 l/m 0 min 0 min 0 W/m 0,0 km/h (0 Bft) 97,87 %
30.05.2022 21:52 13,9 C 12,2 C 8,9 C 68 % 1014,3 hPa 0,0 l/m 0 min 0 min 0 W/m 0,0 km/h (0 Bft) 100,00 %
30.05.2022 21:54 13,8 C 12,2 C 8,9 C 68 % 1014,3 hPa 0,0 l/m 0 min 0 min 0 W/m 0,0 km/h (0 Bft) 100,00 %
30.05.2022 21:56 13,8 C 12,2 C 8,9 C 68 % 1014,3 hPa 0,0 l/m 0 min 0 min 0 W/m 0,0 km/h (0 Bft) 97,83 %
30.05.2022 21:58 13,7 C 12,2 C 8,9 C 69 % 1014,3 hPa 0,0 l/m 0 min 0 min 0 W/m 0,0 km/h (0 Bft) 100,00 %
30.05.2022 22:00 13,7 C 12,2 C 8,9 C 69 % 1014,3 hPa 0,0 l/m 0 min 0 min 0 W/m 0,0 km/h (0 Bft) 100,00 %
30.05.2022 22:02 13,6 C 12,2 C 8,9 C 69 % 1014,3 hPa 0,0 l/m 0 min 0 min 0 W/m 0,0 km/h (0 Bft) 100,00 %
30.05.2022 22:04 13,6 C 12,2 C 8,9 C 69 % 1014,4 hPa 0,0 l/m 0 min 0 min 0 W/m 0,0 km/h (0 Bft) 100,00 %
30.05.2022 22:06 13,5 C 12,2 C 8,3 C 70 % 1014,4 hPa 0,0 l/m 0 min 0 min 0 W/m 0,0 km/h (0 Bft) 100,00 %
30.05.2022 22:08 13,4 C 12,2 C 8,3 C 70 % 1014,4 hPa 0,0 l/m 0 min 0 min 0 W/m 0,0 km/h (0 Bft) 100,00 %
30.05.2022 22:10 13,4 C 11,7 C 8,3 C 70 % 1014,4 hPa 0,0 l/m 0 min 0 min 0 W/m 0,0 km/h (0 Bft) 100,00 %
30.05.2022 22:12 13,3 C 11,7 C 8,3 C 70 % 1014,4 hPa 0,0 l/m 0 min 0 min 0 W/m 0,0 km/h (0 Bft) 97,87 %
30.05.2022 22:14 13,2 C 11,7 C 8,3 C 70 % 1014,5 hPa 0,0 l/m 0 min 0 min 0 W/m 0,0 km/h (0 Bft) 100,00 %
30.05.2022 22:16 13,2 C 11,7 C 8,3 C 70 % 1014,5 hPa 0,0 l/m 0 min 0 min 0 W/m 0,0 km/h (0 Bft) 97,87 %
30.05.2022 22:18 13,1 C 11,7 C 8,3 C 71 % 1014,5 hPa 0,0 l/m 0 min 0 min 0 W/m 0,0 km/h (0 Bft) 97,83 %
30.05.2022 22:20 13,1 C 11,7 C 8,3 C 71 % 1014,5 hPa 0,0 l/m 0 min 0 min 0 W/m 0,0 km/h (0 Bft) 95,74 %
30.05.2022 22:22 13,1 C 11,7 C 8,3 C 72 % 1014,5 hPa 0,0 l/m 0 min 0 min 0 W/m 0,0 km/h (0 Bft) 95,74 %
30.05.2022 22:24 13,0 C 11,7 C 7,8 C 72 % 1014,5 hPa 0,0 l/m 0 min 0 min 0 W/m 0,0 km/h (0 Bft) 97,87 %
30.05.2022 22:26 12,9 C 11,7 C 7,8 C 72 % 1014,6 hPa 0,0 l/m 0 min 0 min 0 W/m 0,0 km/h (0 Bft) 97,87 %
30.05.2022 22:28 12,9 C 11,7 C 7,8 C 72 % 1014,6 hPa 0,0 l/m 0 min 0 min 0 W/m 0,0 km/h (0 Bft) 97,87 %
30.05.2022 22:30 12,8 C 11,7 C 7,8 C 73 % 1014,6 hPa 0,0 l/m 0 min 0 min 0 W/m 0,0 km/h (0 Bft) 97,83 %
30.05.2022 22:32 12,8 C 11,1 C 7,8 C 73 % 1014,6 hPa 0,0 l/m 0 min 0 min 0 W/m 0,0 km/h (0 Bft) 97,87 %
30.05.2022 22:34 12,7 C 11,1 C 7,8 C 73 % 1014,6 hPa 0,0 l/m 0 min 0 min 0 W/m 0,0 km/h (0 Bft) 97,87 %
30.05.2022 22:36 12,7 C 11,1 C 7,8 C 73 % 1014,6 hPa 0,0 l/m 0 min 0 min 0 W/m 0,0 km/h (0 Bft) 94,92 %
30.05.2022 22:38 12,6 C 11,1 C 7,8 C 73 % 1014,6 hPa 0,0 l/m 0 min 0 min 0 W/m 0,0 km/h (0 Bft) 97,14 %
30.05.2022 22:40 12,6 C 11,1 C 7,8 C 73 % 1014,6 hPa 0,0 l/m 0 min 0 min 0 W/m 0,0 km/h (0 Bft) 96,00 %
30.05.2022 22:42 12,5 C 11,1 C 7,8 C 73 % 1014,6 hPa 0,0 l/m 0 min 0 min 0 W/m 0,0 km/h (0 Bft) 97,83 %
30.05.2022 22:44 12,4 C 11,1 C 7,8 C 73 % 1014,6 hPa 0,0 l/m 0 min 0 min 0 W/m 0,0 km/h (0 Bft) 97,87 %
30.05.2022 22:46 12,3 C 11,1 C 7,8 C 74 % 1014,6 hPa 0,0 l/m 0 min 0 min 0 W/m 0,0 km/h (0 Bft) 97,87 %
30.05.2022 22:48 12,3 C 11,1 C 7,2 C 74 % 1014,6 hPa 0,0 l/m 0 min 0 min 0 W/m 0,0 km/h (0 Bft) 97,87 %
30.05.2022 22:50 12,2 C 11,1 C 7,2 C 74 % 1014,6 hPa 0,0 l/m 0 min 0 min 0 W/m 0,0 km/h (0 Bft) 95,74 %
30.05.2022 22:52 12,2 C 11,1 C 7,2 C 74 % 1014,6 hPa 0,0 l/m 0 min 0 min 0 W/m 0,0 km/h (0 Bft) 93,62 %
30.05.2022 22:54 12,2 C 11,1 C 7,2 C 74 % 1014,7 hPa 0,0 l/m 0 min 0 min 0 W/m 0,0 km/h (0 Bft) 95,65 %
30.05.2022 22:56 12,1 C 10,6 C 7,2 C 74 % 1014,7 hPa 0,0 l/m 0 min 0 min 0 W/m 0,0 km/h (0 Bft) 95,74 %
30.05.2022 22:58 12,1 C 10,6 C 7,2 C 75 % 1014,7 hPa 0,0 l/m 0 min 0 min 0 W/m 0,0 km/h (0 Bft) 95,74 %
30.05.2022 23:00 12,1 C 10,6 C 7,2 C 75 % 1014,6 hPa 0,0 l/m 0 min 0 min 0 W/m 0,0 km/h (0 Bft) 95,74 %
30.05.2022 23:02 12,0 C 10,6 C 7,2 C 75 % 1014,7 hPa 0,0 l/m 0 min 0 min 0 W/m 0,0 km/h (0 Bft) 95,74 %
30.05.2022 23:04 11,9 C 10,6 C 7,2 C 75 % 1014,7 hPa 0,0 l/m 0 min 0 min 0 W/m 0,0 km/h (0 Bft) 93,62 %
30.05.2022 23:06 11,9 C 10,6 C 7,2 C 75 % 1014,6 hPa 0,0 l/m 0 min 0 min 0 W/m 0,0 km/h (0 Bft) 95,65 %
30.05.2022 23:08 11,9 C 10,6 C 7,2 C 75 % 1014,6 hPa 0,0 l/m 0 min 0 min 0 W/m 0,0 km/h (0 Bft) 93,62 %
30.05.2022 23:10 11,8 C 10,6 C 7,2 C 75 % 1014,6 hPa 0,0 l/m 0 min 0 min 0 W/m 0,0 km/h (0 Bft) 93,62 %
30.05.2022 23:12 11,8 C 10,6 C 7,2 C 75 % 1014,6 hPa 0,0 l/m 0 min 0 min 0 W/m 0,0 km/h (0 Bft) 91,49 %
30.05.2022 23:14 11,8 C 10,6 C 7,2 C 75 % 1014,6 hPa 0,0 l/m 0 min 0 min 0 W/m 0,0 km/h (0 Bft) 93,62 %
30.05.2022 23:16 11,7 C 10,6 C 7,2 C 76 % 1014,6 hPa 0,0 l/m 0 min 0 min 0 W/m 0,0 km/h (0 Bft) 95,74 %
30.05.2022 23:18 11,7 C 10,6 C 7,2 C 76 % 1014,6 hPa 0,0 l/m 0 min 0 min 0 W/m 0,0 km/h (0 Bft) 95,65 %
30.05.2022 23:20 11,7 C 10,6 C 7,2 C 76 % 1014,6 hPa 0,0 l/m 0 min 0 min 0 W/m 0,0 km/h (0 Bft) 95,74 %
30.05.2022 23:22 11,7 C 10,6 C 7,2 C 75 % 1014,6 hPa 0,0 l/m 0 min 0 min 0 W/m 0,0 km/h (0 Bft) 95,74 %
30.05.2022 23:24 11,6 C 10,6 C 7,2 C 75 % 1014,7 hPa 0,0 l/m 0 min 0 min 0 W/m 0,0 km/h (0 Bft) 95,74 %
30.05.2022 23:26 11,6 C 10,6 C 7,2 C 76 % 1014,7 hPa 0,0 l/m 0 min 0 min 0 W/m 0,0 km/h (0 Bft) 95,74 %
30.05.2022 23:28 11,6 C 10,6 C 7,2 C 76 % 1014,6 hPa 0,0 l/m 0 min 0 min 0 W/m 0,0 km/h (0 Bft) 97,87 %
30.05.2022 23:30 11,6 C 10,6 C 7,2 C 76 % 1014,6 hPa 0,0 l/m 0 min 0 min 0 W/m 0,0 km/h (0 Bft) 97,83 %
30.05.2022 23:32 11,6 C 10,6 C 7,2 C 76 % 1014,7 hPa 0,0 l/m 0 min 0 min 0 W/m 0,0 km/h (0 Bft) 97,87 %
30.05.2022 23:34 11,6 C 10,6 C 7,2 C 76 % 1014,7 hPa 0,0 l/m 0 min 0 min 0 W/m 0,0 km/h (0 Bft) 97,87 %
30.05.2022 23:36 11,5 C 10,6 C 7,2 C 76 % 1014,7 hPa 0,0 l/m 0 min 0 min 0 W/m 0,0 km/h (0 Bft) 97,87 %
30.05.2022 23:38 11,5 C 10,6 C 7,2 C 76 % 1014,7 hPa 0,0 l/m 0 min 0 min 0 W/m 0,0 km/h (0 Bft) 95,74 %
30.05.2022 23:40 11,4 C 10,6 C 7,2 C 76 % 1014,7 hPa 0,0 l/m 0 min 0 min 0 W/m 0,0 km/h (0 Bft) 97,87 %
30.05.2022 23:42 11,4 C 10,6 C 7,2 C 76 % 1014,6 hPa 0,0 l/m 0 min 0 min 0 W/m 0,0 km/h (0 Bft) 97,83 %
30.05.2022 23:44 11,4 C 10,6 C 7,2 C 77 % 1014,6 hPa 0,0 l/m 0 min 0 min 0 W/m 0,0 km/h (0 Bft) 100,00 %
30.05.2022 23:46 11,4 C 10,6 C 7,2 C 77 % 1014,7 hPa 0,0 l/m 0 min 0 min 0 W/m 0,0 km/h (0 Bft) 100,00 %
30.05.2022 23:48 11,4 C 10,6 C 7,2 C 77 % 1014,7 hPa 0,0 l/m 0 min 0 min 0 W/m 0,0 km/h (0 Bft) 100,00 %
30.05.2022 23:50 11,4 C 10,6 C 6,7 C 77 % 1014,7 hPa 0,0 l/m 0 min 0 min 0 W/m 0,0 km/h (0 Bft) 100,00 %
30.05.2022 23:52 11,3 C 10,6 C 6,7 C 77 % 1014,7 hPa 0,0 l/m 0 min 0 min 0 W/m 0,0 km/h (0 Bft) 100,00 %
30.05.2022 23:54 11,3 C 10,6 C 6,7 C 77 % 1014,7 hPa 0,0 l/m 0 min 0 min 0 W/m 0,0 km/h (0 Bft) 100,00 %
30.05.2022 23:56 11,3 C 10,6 C 6,7 C 77 % 1014,8 hPa 0,0 l/m 0 min 0 min 0 W/m 0,0 km/h (0 Bft) 100,00 %
30.05.2022 23:58 11,3 C 10,6 C 6,7 C 78 % 1014,7 hPa 0,0 l/m 0 min 0 min 0 W/m 0,0 km/h (0 Bft) 100,00 %
_ Min-Zeit 05:34 05:02 05:30 18:58 04:38 - - - - 01:48 05:02
Minimum _ 9,1 C 8,3 C 5,0 C 47 % 1012,7 hPa - - - - 0,0 km/h (0 Bft) 77,27 %
_ Max-Zeit 18:52 18:56 10:36 05:04 23:56 00:00 18:08 07:50 11:40 12:18 00:00
Maximum _ 17,6 C 23,3 C 16,7 C 88 % 1014,8 hPa 0,0 l/m 4 min 2 min 1109 W/m 19,3 km/h
NW (3 Bft)
100,00 %
Durchschnitt _ 13,0 C 13,4 C 9,5 C 70 % 1013,8 hPa #0,0 l/m #8:22 h #4 min. 313 W/m 5,3 km/h (1 Bft) 97,44 %
© 2022 W. Hausmann